BA2777 / G-DBCH 7700 Squawk Report (14th of January, 2020)

Aircraft A319 Reg No. G-DBCH Age 14 years old
Model A319 Jet engines 2 First flight 14-02-06
Registered 07-07-12 Rollout 02-06 Delivered 23-02-06
Construction No. 2697 Line No. N/A Series 131
ADSHEX 400D5B Airline name British Airways Owner Aercap Holdings N.V.
Airfield based Heathrow~Gtr London~G First tracked 2017-07-14 12:21:00

Flight history for G-DBCH

Route Flight No Date Playback
Glasgow (GLA) - Heathrow (LHR) BA1489 2020-02-17 16:43:00
Heathrow (LHR) - Glasgow (GLA) BA1484 2020-02-17 16:10:00
Dyce (ABZ) - Heathrow (LHR) BA1307 2020-02-17 12:34:00
Heathrow (LHR) - Dyce (ABZ) BA1306 2020-02-17 11:09:00
???? N/A 2020-02-17 07:07:00
Blagnac (TLS) - Heathrow (LHR) BA379 2020-02-16 19:43:00
Heathrow (LHR) - Blagnac (TLS) BA378 2020-02-16 15:47:00
Blagnac (TLS) - Heathrow (LHR) BA373 2020-02-16 13:58:00
Heathrow (LHR) - Blagnac (TLS) BA372 2020-02-16 08:46:00
Cote D Azur (NCE) - Heathrow (LHR) BA345 2020-02-15 17:34:00
Heathrow (LHR) - Cote D Azur (NCE) BA344 2020-02-15 14:59:00
Manchester (MAN) - Heathrow (LHR) BA1389 2020-02-15 10:57:00
Heathrow (LHR) - Manchester (MAN) BA1386 2020-02-15 08:50:00
Charles De Gaulle (CDG) - Heathrow (LHR) BA311 2020-02-15 07:08:00
Heathrow (LHR) - Charles De Gaulle (CDG) BA310 2020-02-14 22:17:00
Zurich (ZRH) - Heathrow (LHR) BA719 2020-02-14 20:21:00
Heathrow (LHR) - Zurich (ZRH) BA718 2020-02-14 17:28:00
Warsaw Chopin (WAW) - Heathrow (LHR) BA847 2020-02-14 14:37:00
Heathrow (LHR) - Warsaw Chopin (WAW) BA846 2020-02-14 10:52:00
Bologna (BLQ) - Heathrow (LHR) BA545 2020-02-13 19:58:00
Time Lat Lon Altitude Heading Speed Vertical Rate
2020-01-14 22:14:02 GMT 52.451500 -1.737174 0 323 6 0
2020-01-14 22:13:42 GMT 52.451069 -1.737076 0 47 7 0
2020-01-14 22:13:32 GMT 52.450836 -1.737409 0 45 9 0
2020-01-14 22:11:17 GMT 52.463207 -1.758362 900 145 123 -704
2020-01-14 22:11:11 GMT 52.466171 -1.761703 975 146 123 -576
2020-01-14 22:11:05 GMT 52.468597 -1.764374 1,025 146 123 -576
2020-01-14 22:11:01 GMT 52.470657 -1.766663 1,075 145 124 -704
2020-01-14 22:10:56 GMT 52.473083 -1.769409 1,125 146 123 -704
2020-01-14 22:10:51 GMT 52.475510 -1.772079 1,200 145 123 -640
2020-01-14 22:10:46 GMT 52.477570 -1.774368 1,275 145 123 -768
2020-01-14 22:10:41 GMT 52.480316 -1.777420 1,325 145 124 -576
2020-01-14 22:10:37 GMT 52.482388 -1.779785 1,375 145 123 -704
2020-01-14 22:10:29 GMT 52.485600 -1.783316 1,450 146 122 -640
2020-01-14 22:10:26 GMT 52.487274 -1.785121 1,475 146 123 -768
2020-01-14 22:10:21 GMT 52.489697 -1.787868 1,525 145 125 -576
2020-01-14 22:10:16 GMT 52.492081 -1.790543 1,600 145 125 -768
2020-01-14 22:10:11 GMT 52.495102 -1.793976 1,675 145 125 -704
2020-01-14 22:10:05 GMT 52.497253 -1.796417 1,725 146 125 -768
2020-01-14 22:09:58 GMT 52.500504 -1.800003 1,775 146 125 -704
2020-01-14 22:09:55 GMT 52.501740 -1.801376 1,850 146 125 -640
2020-01-14 22:09:50 GMT 52.504360 -1.804269 1,900 146 124 -704
2020-01-14 22:09:45 GMT 52.509705 -1.810226 1,950 145 127 -576
2020-01-14 22:09:39 GMT 52.509705 -1.810226 2,025 146 129 -960
2020-01-14 22:09:36 GMT 52.511528 -1.812195 2,075 146 128 -640
2020-01-14 22:09:29 GMT 52.514420 -1.815338 2,150 146 129 -640
2020-01-14 22:09:24 GMT 52.517166 -1.818390 2,200 145 132 -704
2020-01-14 22:09:19 GMT 52.519535 -1.821062 2,250 146 136 -512
2020-01-14 22:09:16 GMT 52.521259 -1.823024 2,275 146 139 -576
2020-01-14 22:09:13 GMT 52.522842 -1.824751 2,300 146 143 -704
2020-01-14 22:09:10 GMT 52.524948 -1.827011 2,400 145 150 -896
2020-01-14 22:09:05 GMT 52.527451 -1.829851 2,400 145 150 -896
2020-01-14 22:09:02 GMT 52.529266 -1.831813 2,450 145 153 -1088
2020-01-14 22:08:59 GMT 52.530849 -1.833618 2,500 145 156 -1024
2020-01-14 22:08:55 GMT 52.533318 -1.836443 2,575 145 163 -640
2020-01-14 22:08:52 GMT 52.535706 -1.839142 2,625 145 168 -768
2020-01-14 22:08:48 GMT 52.537876 -1.841622 2,650 145 171 -1024
2020-01-14 22:08:44 GMT 52.540878 -1.845016 2,750 145 171 -960
2020-01-14 22:08:39 GMT 52.543900 -1.848373 2,825 145 171 -960
2020-01-14 22:08:34 GMT 52.547142 -1.852060 2,900 145 170 -832
2020-01-14 22:08:31 GMT 52.548912 -1.854021 2,950 145 171 -768
2020-01-14 22:08:28 GMT 52.554199 -1.859894 3,050 146 170 -832
2020-01-14 22:08:23 GMT 52.554199 -1.859894 3,075 146 168 -640
2020-01-14 22:08:20 GMT 52.556213 -1.862106 3,075 146 168 -448
2020-01-14 22:08:17 GMT 52.558090 -1.864166 3,100 145 167 0
2020-01-14 22:08:13 GMT 52.562923 -1.869559 3,100 146 167 0
2020-01-14 22:08:10 GMT 52.562923 -1.869559 3,100 146 167 -64
2020-01-14 22:08:07 GMT 52.564590 -1.871338 3,100 146 167 -64
2020-01-14 22:08:03 GMT 52.568939 -1.876144 3,100 145 169 -64
2020-01-14 22:08:00 GMT 52.568939 -1.876144 3,100 145 169 0
2020-01-14 22:07:57 GMT 52.571022 -1.878505 3,100 145 170 -64
2020-01-14 22:07:53 GMT 52.573654 -1.881485 3,100 145 176 -128
2020-01-14 22:07:50 GMT 52.576126 -1.884232 3,100 145 176 -128
2020-01-14 22:07:47 GMT 52.577774 -1.886117 3,100 145 181 -192
2020-01-14 22:07:44 GMT 52.580566 -1.889267 3,125 145 186 -512
2020-01-14 22:07:41 GMT 52.581963 -1.890826 3,150 145 186 -512
2020-01-14 22:07:38 GMT 52.583908 -1.893005 3,175 145 186 -576
2020-01-14 22:07:35 GMT 52.586666 -1.896162 3,225 144 187 -576
2020-01-14 22:07:32 GMT 52.587982 -1.897736 3,250 144 187 -576
2020-01-14 22:07:29 GMT 52.590668 -1.900870 3,275 143 186 -576
2020-01-14 22:07:26 GMT 52.594757 -1.905899 3,325 142 187 -576
2020-01-14 22:07:20 GMT 52.596813 -1.908482 3,350 141 188 -576
2020-01-14 22:07:17 GMT 52.600616 -1.913528 3,425 139 189 -576
2020-01-14 22:07:11 GMT 52.602310 -1.915817 3,450 137 191 -576
2020-01-14 22:07:08 GMT 52.604691 -1.919556 3,475 132 195 -576
2020-01-14 22:07:05 GMT 52.606636 -1.923000 3,550 122 201 -640
2020-01-14 22:07:02 GMT 52.608124 -1.926296 3,525 120 203 -704
2020-01-14 22:06:59 GMT 52.609497 -1.930161 3,575 113 207 -640
2020-01-14 22:06:56 GMT 52.610550 -1.933975 3,600 109 210 -704
2020-01-14 22:06:53 GMT 52.611557 -1.938629 3,625 108 212 -704
2020-01-14 22:06:50 GMT 52.613571 -1.948853 4,175 107 213 -1024
2020-01-14 22:06:47 GMT 52.613571 -1.948853 3,725 104 216 -1280
2020-01-14 22:06:43 GMT 52.615128 -1.960754 3,850 98 218 -1600
2020-01-14 22:06:40 GMT 52.615265 -1.964111 3,925 94 220 -1664
2020-01-14 22:06:33 GMT 52.614258 -1.977310 4,175 74 223 -1856
2020-01-14 22:06:30 GMT 52.614258 -1.977310 4,200 72 224 -1792
2020-01-14 22:06:27 GMT 52.613617 -1.980591 4,300 59 225 -960
2020-01-14 22:06:24 GMT 52.611897 -1.987113 4,350 60 225 -1024
2020-01-14 22:06:21 GMT 52.610733 -1.990566 4,375 59 225 -960
2020-01-14 22:06:18 GMT 52.609055 -1.995039 4,425 58 225 -960
2020-01-14 22:06:15 GMT 52.607010 -2.000453 4,450 57 226 -1088
2020-01-14 22:06:12 GMT 52.605473 -2.004456 4,550 57 229 -512
2020-01-14 22:06:06 GMT 52.600571 -2.016830 4,575 56 230 -256
2020-01-14 22:06:03 GMT 52.600571 -2.016830 4,600 54 231 0
2020-01-14 22:05:57 GMT 52.597000 -2.025016 4,600 50 232 64
2020-01-14 22:05:53 GMT 52.593510 -2.031686 4,575 42 230 0
2020-01-14 22:05:50 GMT 52.592438 -2.033412 4,575 40 229 0
2020-01-14 22:05:47 GMT 52.585602 -2.041092 4,575 29 225 0
2020-01-14 22:05:43 GMT 52.585602 -2.041092 4,575 19 221 64
2020-01-14 22:05:40 GMT 52.580429 -2.044296 4,575 14 219 0
2020-01-14 22:05:37 GMT 52.580429 -2.044296 4,575 12 218 0
2020-01-14 22:05:34 GMT 52.577271 -2.045288 4,575 8 215 0
2020-01-14 22:05:31 GMT 52.574432 -2.045593 4,575 355 206 0
2020-01-14 22:05:28 GMT 52.570885 -2.045262 4,575 350 204 0
2020-01-14 22:05:25 GMT 52.568462 -2.044556 4,575 341 196 64
2020-01-14 22:05:19 GMT 52.561108 -2.038984 4,575 327 187 -64
2020-01-14 22:05:16 GMT 52.559383 -2.036944 4,575 322 183 0
2020-01-14 22:05:10 GMT 52.556946 -2.033539 4,575 320 183 0
2020-01-14 22:05:07 GMT 52.555023 -2.030869 4,575 320 183 -64
2020-01-14 22:05:04 GMT 52.553055 -2.028155 4,575 320 183 -64
2020-01-14 22:05:01 GMT 52.548912 -2.022426 4,600 321 183 -64
2020-01-14 22:04:58 GMT 52.548912 -2.022426 4,600 320 183 -64
2020-01-14 22:04:55 GMT 52.547142 -2.019993 4,600 321 183 -64
2020-01-14 22:04:51 GMT 52.544540 -2.016449 4,600 320 184 0
2020-01-14 22:04:48 GMT 52.543045 -2.014343 4,900 319 212 -1024
2020-01-14 22:04:45 GMT 52.540764 -2.011126 4,600 320 186 -64
2020-01-14 22:04:42 GMT 52.538857 -2.008458 4,600 320 188 -64
2020-01-14 22:04:39 GMT 52.536900 -2.005790 4,600 319 195 -128
2020-01-14 22:04:36 GMT 52.535038 -2.003043 4,600 319 194 -64
2020-01-14 22:04:33 GMT 52.533005 -2.000122 4,600 319 196 -128
2020-01-14 22:04:29 GMT 52.529846 -1.995468 4,625 319 202 -384
2020-01-14 22:04:26 GMT 52.528053 -1.992920 4,650 318 204 -512
2020-01-14 22:04:22 GMT 52.524891 -1.988211 4,700 318 207 -896
2020-01-14 22:04:18 GMT 52.522236 -1.984366 4,775 318 208 -1088
2020-01-14 22:04:15 GMT 52.520096 -1.981125 4,800 319 209 -1088
2020-01-14 22:04:11 GMT 52.516754 -1.976242 4,925 319 213 -1024
2020-01-14 22:04:07 GMT 52.514416 -1.972752 4,950 319 215 -960
2020-01-14 22:04:04 GMT 52.510025 -1.966324 5,025 318 217 -960
2020-01-14 22:03:57 GMT 52.507233 -1.962128 5,100 318 220 -1024
2020-01-14 22:03:54 GMT 52.504223 -1.957607 5,150 318 222 -1216
2020-01-14 22:03:51 GMT 52.502403 -1.954860 5,225 318 223 -1536
2020-01-14 22:03:48 GMT 52.499660 -1.950701 5,350 318 223 -1664
2020-01-14 22:03:42 GMT 52.494678 -1.943324 5,525 319 225 -1600
2020-01-14 22:03:39 GMT 52.493233 -1.941127 5,550 319 225 -1600
2020-01-14 22:03:36 GMT 52.491211 -1.938171 5,675 319 226 -1472
2020-01-14 22:03:33 GMT 52.488419 -1.934204 6,025 320 229 -1536
2020-01-14 22:03:30 GMT 52.483364 -1.927159 5,850 320 229 -1536
2020-01-14 22:03:27 GMT 52.483364 -1.927159 5,875 321 229 -1600
2020-01-14 22:03:23 GMT 52.480270 -1.922913 6,000 321 231 -1536
2020-01-14 22:03:20 GMT 52.478210 -1.920090 6,050 321 231 -1536
2020-01-14 22:03:17 GMT 52.475407 -1.916330 6,150 321 233 -1472
2020-01-14 22:03:14 GMT 52.473030 -1.913112 6,275 322 235 -1472
2020-01-14 22:03:11 GMT 52.470016 -1.909103 6,300 321 234 -1408
2020-01-14 22:03:08 GMT 52.465302 -1.902754 6,450 322 237 -1536
2020-01-14 22:03:05 GMT 52.465302 -1.902754 6,475 322 236 -1536
2020-01-14 22:03:02 GMT 52.462837 -1.899536 6,500 322 237 -1472
2020-01-14 22:02:59 GMT 52.459808 -1.895612 6,625 322 238 -1536
2020-01-14 22:02:56 GMT 52.457668 -1.892787 7,000 323 239 -1728
2020-01-14 22:02:53 GMT 52.454643 -1.888864 7,400 323 240 -1792
2020-01-14 22:02:50 GMT 52.452454 -1.886039 6,825 323 240 -1792
2020-01-14 22:02:47 GMT 52.449940 -1.882821 6,875 323 240 -1792
2020-01-14 22:02:44 GMT 52.447704 -1.880075 6,950 323 239 -1792
2020-01-14 22:02:41 GMT 52.444122 -1.875523 7,150 323 239 -1856
2020-01-14 22:02:38 GMT 52.441978 -1.872934 7,225 323 240 -1856
2020-01-14 22:02:35 GMT 52.436485 -1.866185 7,300 324 240 -1856
2020-01-14 22:02:32 GMT 52.436485 -1.866185 7,375 324 240 -1856
2020-01-14 22:02:29 GMT 52.433441 -1.862488 7,500 324 239 -1856
2020-01-14 22:02:26 GMT 52.430832 -1.859360 7,575 324 239 -1856
2020-01-14 22:02:23 GMT 52.427643 -1.855512 7,675 324 239 -1920
2020-01-14 22:02:20 GMT 52.426292 -1.853943 7,800 324 239 -1920
2020-01-14 22:02:17 GMT 52.423279 -1.850281 7,825 324 239 -1984
2020-01-14 22:02:14 GMT 52.420658 -1.847194 8,050 324 237 -1856
2020-01-14 22:02:10 GMT 52.416687 -1.842422 8,100 324 237 -1728
2020-01-14 22:02:07 GMT 52.413940 -1.839142 8,175 325 238 -1472
2020-01-14 22:02:04 GMT 52.410965 -1.835709 8,225 324 239 -1280
2020-01-14 22:02:00 GMT 52.407951 -1.832049 8,275 324 239 -1280
2020-01-14 22:01:57 GMT 52.403622 -1.826948 8,375 325 242 -1344
2020-01-14 22:01:54 GMT 52.400208 -1.822891 8,475 325 243 -1408
2020-01-14 22:01:51 GMT 52.397186 -1.819305 8,525 325 243 -1472
2020-01-14 22:01:48 GMT 52.397186 -1.819305 8,600 325 244 -1600
2020-01-14 22:01:45 GMT 52.394451 -1.816040 8,675 325 245 -1664
2020-01-14 22:01:42 GMT 52.391426 -1.812509 8,750 325 245 -1600
2020-01-14 22:01:39 GMT 52.389095 -1.809841 8,800 325 245 -1408
2020-01-14 22:01:36 GMT 52.386520 -1.806793 8,925 325 246 -1088
2020-01-14 22:01:33 GMT 52.383133 -1.802750 8,950 324 250 -512
2020-01-14 22:01:30 GMT 52.377411 -1.795951 9,000 324 258 -192
2020-01-14 22:01:27 GMT 52.377411 -1.795951 8,975 324 258 -192
2020-01-14 22:01:21 GMT 52.371315 -1.788574 9,000 324 261 0
2020-01-14 22:01:18 GMT 52.368893 -1.785592 9,000 323 264 0
2020-01-14 22:01:15 GMT 52.365913 -1.781904 9,000 323 268 0
2020-01-14 22:01:12 GMT 52.362579 -1.777725 9,000 323 268 0
2020-01-14 22:01:09 GMT 52.360096 -1.774606 9,000 323 270 64
2020-01-14 22:01:06 GMT 52.356812 -1.770477 9,000 322 274 64
2020-01-14 22:01:02 GMT 52.354183 -1.766994 8,975 320 276 0
2020-01-14 22:00:59 GMT 52.346970 -1.756973 9,000 320 277 0
2020-01-14 22:00:55 GMT 52.346970 -1.756973 9,000 319 277 0
2020-01-14 22:00:52 GMT 52.343708 -1.752241 9,000 317 273 0
2020-01-14 22:00:49 GMT 52.341110 -1.748352 9,000 318 275 0
2020-01-14 22:00:46 GMT 52.337448 -1.742783 9,000 318 275 0
2020-01-14 22:00:43 GMT 52.334381 -1.738129 9,000 318 275 0
2020-01-14 22:00:40 GMT 52.332863 -1.735918 9,000 318 275 0
2020-01-14 22:00:37 GMT 52.329895 -1.731339 9,000 318 274 0
2020-01-14 22:00:34 GMT 52.326717 -1.726580 9,000 318 274 0
2020-01-14 22:00:31 GMT 52.323227 -1.721165 9,000 317 274 0
2020-01-14 22:00:28 GMT 52.321472 -1.718521 9,000 317 273 0
2020-01-14 22:00:25 GMT 52.318771 -1.714401 9,000 317 274 0
2020-01-14 22:00:22 GMT 52.315750 -1.709671 9,000 317 273 0
2020-01-14 22:00:18 GMT 52.312008 -1.703823 9,000 317 273 0
2020-01-14 22:00:15 GMT 52.310028 -1.700668 9,000 317 273 0
2020-01-14 22:00:12 GMT 52.307117 -1.696132 9,000 317 273 0
2020-01-14 22:00:09 GMT 52.303581 -1.690560 9,000 317 273 0
2020-01-14 22:00:06 GMT 52.301720 -1.687657 9,000 317 273 0
2020-01-14 22:00:03 GMT 52.298813 -1.683121 9,000 317 274 0
2020-01-14 22:00:00 GMT 52.295792 -1.678391 9,000 317 274 0
2020-01-14 21:59:57 GMT 52.290665 -1.670456 9,000 317 273 -64
2020-01-14 21:59:51 GMT 52.287643 -1.665726 9,025 317 273 -64
2020-01-14 21:59:48 GMT 52.284725 -1.661133 9,000 317 273 -64
2020-01-14 21:59:45 GMT 52.282196 -1.657181 9,025 317 273 -64
2020-01-14 21:59:42 GMT 52.279606 -1.653128 9,025 317 273 -64
2020-01-14 21:59:39 GMT 52.275883 -1.647321 9,025 317 273 -128
2020-01-14 21:59:36 GMT 52.274021 -1.644339 9,050 317 271 -256
2020-01-14 21:59:33 GMT 52.271366 -1.640259 9,075 317 271 -448
2020-01-14 21:59:30 GMT 52.268463 -1.635742 9,050 317 271 -384
2020-01-14 21:59:27 GMT 52.263062 -1.627197 9,100 317 270 -832
2020-01-14 21:59:24 GMT 52.260086 -1.622543 9,150 317 270 -1280
2020-01-14 21:59:21 GMT 52.260086 -1.622543 9,375 317 270 -1408
2020-01-14 21:59:18 GMT 52.257355 -1.618286 9,275 317 269 -1792
2020-01-14 21:59:15 GMT 52.255119 -1.614755 9,325 317 270 -1664
2020-01-14 21:59:12 GMT 52.251526 -1.609116 9,450 317 269 -1920
2020-01-14 21:59:08 GMT 52.245941 -1.600494 9,625 317 267 -1920
2020-01-14 21:59:05 GMT 52.243759 -1.597255 9,725 318 267 -1920
2020-01-14 21:58:59 GMT 52.237518 -1.587830 9,925 318 265 -1984
2020-01-14 21:58:56 GMT 52.237518 -1.587830 10,000 318 264 -1984
2020-01-14 21:58:53 GMT 52.234776 -1.583836 10,050 319 264 -1984
2020-01-14 21:58:50 GMT 52.232620 -1.580658 10,225 319 263 -1856
2020-01-14 21:58:47 GMT 52.230076 -1.576930 10,475 319 262 -1664
2020-01-14 21:58:44 GMT 52.226536 -1.571830 10,325 319 262 -1792
2020-01-14 21:58:41 GMT 52.224335 -1.568680 10,525 320 262 -1600
2020-01-14 21:58:38 GMT 52.221313 -1.564407 10,625 320 263 -1408
2020-01-14 21:58:35 GMT 52.218475 -1.560364 10,575 320 263 -1344
2020-01-14 21:58:32 GMT 52.213348 -1.553268 10,675 320 266 -1088
2020-01-14 21:58:29 GMT 52.210567 -1.549386 10,725 320 266 -1088
2020-01-14 21:58:26 GMT 52.210567 -1.549386 10,775 334 296 -832
2020-01-14 21:58:23 GMT 52.207123 -1.544756 10,800 322 270 -896
2020-01-14 21:58:20 GMT 52.204563 -1.541460 10,825 323 273 -960
2020-01-14 21:58:17 GMT 52.201725 -1.538007 10,850 326 279 -1024
2020-01-14 21:58:14 GMT 52.195496 -1.531143 10,950 330 286 -1216
2020-01-14 21:58:08 GMT 52.188446 -1.524811 11,075 333 292 -960
2020-01-14 21:58:02 GMT 52.179192 -1.517447 11,225 334 300 -896
2020-01-14 21:57:59 GMT 52.179192 -1.517447 11,200 334 299 -832
2020-01-14 21:57:56 GMT 52.176453 -1.515274 11,275 334 302 -1280
2020-01-14 21:57:53 GMT 52.173569 -1.512909 11,300 334 301 -1280
2020-01-14 21:57:50 GMT 52.170227 -1.510239 11,375 334 302 -1280
2020-01-14 21:57:47 GMT 52.165459 -1.506383 11,400 334 302 -1280
2020-01-14 21:57:44 GMT 52.161713 -1.503296 11,475 334 303 -1280
2020-01-14 21:57:41 GMT 52.154427 -1.497358 11,575 334 303 -1280
2020-01-14 21:57:35 GMT 52.146286 -1.490631 11,675 333 304 -1216
2020-01-14 21:57:32 GMT 52.146286 -1.490631 11,775 333 306 -1024
2020-01-14 21:57:29 GMT 52.143173 -1.487961 11,775 333 306 -1024
2020-01-14 21:57:26 GMT 52.139008 -1.484528 11,875 333 307 -1024
2020-01-14 21:57:23 GMT 52.134735 -1.480879 11,900 333 313 -1408
2020-01-14 21:57:20 GMT 52.131958 -1.478500 11,950 333 309 -960
2020-01-14 21:57:17 GMT 52.127380 -1.474679 11,975 333 311 -960
2020-01-14 21:57:14 GMT 52.124039 -1.471863 12,150 333 313 -1408
2020-01-14 21:57:11 GMT 52.120213 -1.468637 12,075 333 312 -1280
2020-01-14 21:57:08 GMT 52.115341 -1.464539 12,125 333 313 -1408
2020-01-14 21:57:05 GMT 52.108658 -1.458893 12,275 333 313 -1408
2020-01-14 21:57:02 GMT 52.105316 -1.456081 12,300 333 313 -1344
2020-01-14 21:56:59 GMT 52.099640 -1.451263 12,375 333 315 -1280
2020-01-14 21:56:56 GMT 52.099640 -1.451263 12,450 333 314 -1344
2020-01-14 21:56:53 GMT 52.097588 -1.449568 12,525 333 317 -1024
2020-01-14 21:56:50 GMT 52.092560 -1.445251 12,550 333 315 -1152
2020-01-14 21:56:47 GMT 52.088791 -1.442113 12,625 333 316 -1088
2020-01-14 21:56:44 GMT 52.085808 -1.439601 12,650 333 317 -960
2020-01-14 21:56:41 GMT 52.081478 -1.435992 12,700 333 318 -1024
2020-01-14 21:56:38 GMT 52.077850 -1.432877 12,750 333 318 -1024
2020-01-14 21:56:35 GMT 52.069519 -1.426086 13,050 334 319 -1024
2020-01-14 21:56:32 GMT 52.063091 -1.420768 12,875 334 319 -1024
2020-01-14 21:56:28 GMT 52.063091 -1.420768 12,950 334 320 -1024
2020-01-14 21:56:25 GMT 52.060547 -1.418686 13,000 334 320 -960
2020-01-14 21:56:22 GMT 52.055691 -1.414647 13,025 334 319 -1024
2020-01-14 21:56:19 GMT 52.051872 -1.411508 13,125 334 319 -1024
2020-01-14 21:56:16 GMT 52.048416 -1.408691 13,125 334 319 -1024
2020-01-14 21:56:13 GMT 52.044239 -1.405230 13,200 334 318 -1024
2020-01-14 21:56:07 GMT 52.036514 -1.398849 13,275 334 317 -1024
2020-01-14 21:56:04 GMT 52.032040 -1.395185 13,350 334 316 -1024
2020-01-14 21:56:00 GMT 52.027760 -1.391654 13,400 334 316 -960
2020-01-14 21:55:57 GMT 52.018982 -1.384583 13,475 334 315 -1024
2020-01-14 21:55:54 GMT 52.018982 -1.384583 13,525 334 315 -1024
2020-01-14 21:55:51 GMT 52.012253 -1.379013 13,600 334 314 -1024
2020-01-14 21:55:48 GMT 52.012253 -1.379013 13,950 334 316 -576
2020-01-14 21:55:45 GMT 52.007950 -1.375504 13,800 334 312 0
2020-01-14 21:55:42 GMT 52.003922 -1.372223 13,750 334 315 -1088
2020-01-14 21:55:39 GMT 51.999222 -1.368426 13,775 334 316 -1088
2020-01-14 21:55:36 GMT 51.996597 -1.366272 13,825 334 316 -1088
2020-01-14 21:55:33 GMT 51.992844 -1.363168 14,000 334 315 -128
2020-01-14 21:55:30 GMT 51.988144 -1.359323 13,900 334 316 -896
2020-01-14 21:55:27 GMT 51.980850 -1.353302 13,975 334 316 -384
2020-01-14 21:55:21 GMT 51.976135 -1.349487 14,000 334 315 -192
2020-01-14 21:55:18 GMT 51.967567 -1.342451 14,000 334 314 0
2020-01-14 21:55:14 GMT 51.967567 -1.342451 14,000 334 314 64
2020-01-14 21:55:11 GMT 51.962769 -1.338577 14,000 334 313 0
2020-01-14 21:55:08 GMT 51.960205 -1.336441 14,000 334 313 0
2020-01-14 21:55:05 GMT 51.952065 -1.329817 14,000 334 312 0
2020-01-14 21:55:02 GMT 51.948212 -1.326675 14,000 334 312 -64
2020-01-14 21:54:59 GMT 51.948212 -1.326675 14,000 334 312 0
2020-01-14 21:54:56 GMT 51.944569 -1.323774 14,000 334 311 0
2020-01-14 21:54:53 GMT 51.940334 -1.320321 14,000 334 311 0
2020-01-14 21:54:50 GMT 51.936722 -1.317368 14,000 334 311 0
2020-01-14 21:54:47 GMT 51.931732 -1.313324 14,000 334 310 0
2020-01-14 21:54:44 GMT 51.928528 -1.310654 14,000 334 310 0
2020-01-14 21:54:41 GMT 51.921528 -1.304862 14,000 334 309 0
2020-01-14 21:54:35 GMT 51.917057 -1.301252 14,000 334 309 0
2020-01-14 21:54:32 GMT 51.909805 -1.295242 14,000 334 308 0
2020-01-14 21:54:29 GMT 51.909805 -1.295242 14,000 334 308 0
2020-01-14 21:54:26 GMT 51.906258 -1.292306 14,000 334 308 0
2020-01-14 21:54:23 GMT 51.902718 -1.289403 14,000 334 308 0
2020-01-14 21:54:20 GMT 51.898911 -1.286316 14,000 334 307 0
2020-01-14 21:54:17 GMT 51.894974 -1.283112 14,000 334 306 0
2020-01-14 21:54:14 GMT 51.891037 -1.279907 14,000 334 306 0
2020-01-14 21:54:11 GMT 51.886101 -1.275940 14,000 334 306 0
2020-01-14 21:54:08 GMT 51.883076 -1.273422 14,000 334 306 0
2020-01-14 21:54:05 GMT 51.878769 -1.269960 14,000 334 307 0
2020-01-14 21:54:02 GMT 51.870506 -1.263199 14,000 334 308 0
2020-01-14 21:53:58 GMT 51.870506 -1.263199 14,000 334 308 0
2020-01-14 21:53:55 GMT 51.865906 -1.259493 14,000 334 308 0
2020-01-14 21:53:52 GMT 51.862869 -1.257019 14,000 334 308 0
2020-01-14 21:53:49 GMT 51.859543 -1.254297 14,000 334 308 0
2020-01-14 21:53:46 GMT 51.855606 -1.251105 14,000 334 308 -64
2020-01-14 21:53:43 GMT 51.851002 -1.247330 14,000 334 309 0
2020-01-14 21:53:40 GMT 51.846451 -1.243608 14,000 334 308 0
2020-01-14 21:53:37 GMT 51.842621 -1.240540 14,000 334 308 0
2020-01-14 21:53:34 GMT 51.839310 -1.237818 14,000 334 308 0
2020-01-14 21:53:31 GMT 51.836380 -1.235442 14,000 334 307 64
2020-01-14 21:53:28 GMT 51.831589 -1.231537 14,000 334 307 64
2020-01-14 21:53:25 GMT 51.828564 -1.229019 14,000 334 307 0
2020-01-14 21:53:22 GMT 51.823719 -1.225052 14,000 334 307 0
2020-01-14 21:53:19 GMT 51.820927 -1.222763 14,000 334 307 0
2020-01-14 21:53:16 GMT 51.817657 -1.220076 14,000 334 308 0
2020-01-14 21:53:13 GMT 51.813721 -1.216884 14,000 334 307 0
2020-01-14 21:53:10 GMT 51.809784 -1.213692 14,000 334 307 0
2020-01-14 21:53:07 GMT 51.805332 -1.210098 14,000 334 307 0
2020-01-14 21:53:03 GMT 51.796326 -1.202780 14,000 334 307 0
2020-01-14 21:53:00 GMT 51.792618 -1.199811 14,000 334 307 0
2020-01-14 21:52:57 GMT 51.788807 -1.196747 14,000 334 308 64
2020-01-14 21:52:54 GMT 51.788807 -1.196747 14,000 334 308 0
2020-01-14 21:52:51 GMT 51.785084 -1.193771 14,000 334 308 0
2020-01-14 21:52:48 GMT 51.781918 -1.191177 14,000 334 308 0
2020-01-14 21:52:45 GMT 51.777328 -1.187488 14,000 334 308 -64
2020-01-14 21:52:42 GMT 51.774399 -1.185113 14,000 334 308 64
2020-01-14 21:52:39 GMT 51.770462 -1.181995 14,000 334 307 0
2020-01-14 21:52:36 GMT 51.766647 -1.178894 14,000 334 307 0
2020-01-14 21:52:33 GMT 51.761261 -1.174646 14,000 334 308 64
2020-01-14 21:52:30 GMT 51.758453 -1.172333 14,000 334 308 64
2020-01-14 21:52:27 GMT 51.753616 -1.168485 14,000 334 308 0
2020-01-14 21:52:24 GMT 51.751610 -1.166840 14,000 334 308 -64
2020-01-14 21:52:21 GMT 51.747375 -1.163483 14,000 334 307 0
2020-01-14 21:52:18 GMT 51.743317 -1.160171 14,000 334 305 0
2020-01-14 21:52:15 GMT 51.739506 -1.157150 14,000 334 306 0
2020-01-14 21:52:12 GMT 51.736111 -1.154327 14,000 334 306 0
2020-01-14 21:52:09 GMT 51.731174 -1.150360 14,000 334 305 0
2020-01-14 21:52:06 GMT 51.727386 -1.147255 14,000 334 305 0
2020-01-14 21:52:03 GMT 51.723221 -1.143914 14,000 334 305 0
2020-01-14 21:52:00 GMT 51.717270 -1.139089 14,000 334 306 0
2020-01-14 21:51:54 GMT 51.713345 -1.135941 14,000 334 306 0
2020-01-14 21:51:51 GMT 51.708023 -1.131666 14,000 334 307 64
2020-01-14 21:51:48 GMT 51.705616 -1.129684 14,000 334 307 64
2020-01-14 21:51:45 GMT 51.698029 -1.123581 14,000 334 307 0
2020-01-14 21:51:42 GMT 51.698029 -1.123581 14,000 334 306 -64
2020-01-14 21:51:39 GMT 51.694107 -1.120457 14,000 334 306 0
2020-01-14 21:51:36 GMT 51.689045 -1.116333 14,000 334 305 0
2020-01-14 21:51:33 GMT 51.686646 -1.114370 14,000 334 305 -64
2020-01-14 21:51:30 GMT 51.683212 -1.111623 14,000 334 305 -64
2020-01-14 21:51:27 GMT 51.679092 -1.108283 14,000 334 305 0
2020-01-14 21:51:24 GMT 51.675430 -1.105314 14,000 334 305 0
2020-01-14 21:51:21 GMT 51.670517 -1.101303 14,000 334 305 0
2020-01-14 21:51:18 GMT 51.667007 -1.098410 14,000 334 305 0
2020-01-14 21:51:15 GMT 51.663986 -1.095960 14,000 334 305 -64
2020-01-14 21:51:12 GMT 51.659454 -1.092323 14,000 334 304 0
2020-01-14 21:51:09 GMT 51.656319 -1.089783 14,000 334 304 -64
2020-01-14 21:51:06 GMT 51.651291 -1.085663 14,000 334 304 0
2020-01-14 21:51:03 GMT 51.644623 -1.080298 14,000 334 304 0
2020-01-14 21:51:00 GMT 51.644623 -1.080298 14,000 334 304 0
2020-01-14 21:50:57 GMT 51.640862 -1.077271 14,000 334 304 0
2020-01-14 21:50:54 GMT 51.637711 -1.074730 14,000 334 304 64
2020-01-14 21:50:51 GMT 51.633820 -1.071612 14,000 334 304 64
2020-01-14 21:50:48 GMT 51.629288 -1.067975 14,000 334 304 64
2020-01-14 21:50:45 GMT 51.626015 -1.065292 14,000 334 305 0
2020-01-14 21:50:42 GMT 51.621460 -1.061665 14,000 334 305 0
2020-01-14 21:50:39 GMT 51.618439 -1.059290 14,000 334 305 0
2020-01-14 21:50:36 GMT 51.615280 -1.056766 14,000 334 305 -64
2020-01-14 21:50:33 GMT 51.611721 -1.053925 14,000 334 305 0
2020-01-14 21:50:30 GMT 51.606537 -1.049714 14,000 334 306 -64
2020-01-14 21:50:27 GMT 51.600082 -1.044518 14,000 334 306 -64
2020-01-14 21:50:24 GMT 51.600082 -1.044518 14,000 334 306 -64
2020-01-14 21:50:21 GMT 51.595276 -1.040658 14,000 334 306 -64
2020-01-14 21:50:18 GMT 51.591339 -1.037540 14,000 334 306 0
2020-01-14 21:50:15 GMT 51.587563 -1.034470 14,000 334 306 0
2020-01-14 21:50:12 GMT 51.582504 -1.030414 14,000 334 307 64
2020-01-14 21:50:09 GMT 51.580578 -1.028900 14,000 334 307 64
2020-01-14 21:50:06 GMT 51.575363 -1.024698 14,000 334 307 0
2020-01-14 21:50:03 GMT 51.572205 -1.022174 14,000 334 307 0
2020-01-14 21:50:00 GMT 51.569641 -1.020170 14,000 334 307 0
2020-01-14 21:49:57 GMT 51.561398 -1.013489 14,000 334 307 0
2020-01-14 21:49:54 GMT 51.558186 -1.010971 14,000 334 307 0
2020-01-14 21:49:51 GMT 51.552979 -1.006734 14,000 334 307 0
2020-01-14 21:49:48 GMT 51.552979 -1.006734 14,000 334 307 0
2020-01-14 21:49:45 GMT 51.550087 -1.004410 14,000 334 307 0
2020-01-14 21:49:42 GMT 51.545380 -1.000572 14,000 334 307 0
2020-01-14 21:49:39 GMT 51.542175 -0.998049 14,000 334 307 0
2020-01-14 21:49:36 GMT 51.538868 -0.995407 14,000 334 307 64
2020-01-14 21:49:33 GMT 51.531143 -0.989215 14,000 334 308 0
2020-01-14 21:49:30 GMT 51.527321 -0.986099 14,000 334 308 0
2020-01-14 21:49:24 GMT 51.519131 -0.979614 14,000 334 308 -64
2020-01-14 21:49:21 GMT 51.519131 -0.979614 14,000 334 308 0
2020-01-14 21:49:18 GMT 51.511597 -0.973626 14,000 334 309 0
2020-01-14 21:49:15 GMT 51.511597 -0.973626 14,000 334 309 0
2020-01-14 21:49:12 GMT 51.507259 -0.970154 14,000 334 309 0
2020-01-14 21:49:09 GMT 51.503578 -0.967178 14,000 334 309 0
2020-01-14 21:49:06 GMT 51.499969 -0.964347 14,000 334 309 0
2020-01-14 21:49:03 GMT 51.496811 -0.961823 14,000 334 309 0
2020-01-14 21:49:00 GMT 51.492455 -0.958328 14,000 334 309 0
2020-01-14 21:48:57 GMT 51.483627 -0.951357 14,000 334 309 0
2020-01-14 21:48:54 GMT 51.480072 -0.948563 14,000 334 308 0
2020-01-14 21:48:51 GMT 51.480072 -0.948563 14,000 334 308 0
2020-01-14 21:48:48 GMT 51.476990 -0.946086 14,000 334 309 -64
2020-01-14 21:48:45 GMT 51.473053 -0.942968 14,000 334 309 -64
2020-01-14 21:48:42 GMT 51.468945 -0.939713 14,000 334 308 0
2020-01-14 21:48:39 GMT 51.465733 -0.937195 14,000 334 309 0
2020-01-14 21:48:36 GMT 51.462009 -0.934296 14,000 334 310 0
2020-01-14 21:48:33 GMT 51.457027 -0.930252 14,000 334 310 0
2020-01-14 21:48:30 GMT 51.454193 -0.928048 14,000 334 310 0
2020-01-14 21:48:27 GMT 51.450882 -0.925369 14,000 334 310 0
2020-01-14 21:48:24 GMT 51.446503 -0.921887 14,000 334 310 0
2020-01-14 21:48:21 GMT 51.437660 -0.914841 14,000 334 310 0
2020-01-14 21:48:18 GMT 51.437660 -0.914841 14,000 334 310 0
2020-01-14 21:48:15 GMT 51.435196 -0.912857 14,000 334 310 0
2020-01-14 21:48:12 GMT 51.431122 -0.909564 14,000 334 310 0
2020-01-14 21:48:09 GMT 51.427002 -0.906296 14,000 334 310 0
2020-01-14 21:48:06 GMT 51.423935 -0.903848 14,000 334 310 0
2020-01-14 21:48:03 GMT 51.419678 -0.900508 14,000 334 311 0
2020-01-14 21:48:00 GMT 51.415970 -0.897538 14,000 334 311 0
2020-01-14 21:47:57 GMT 51.412106 -0.894470 14,000 334 311 0
2020-01-14 21:47:54 GMT 51.403820 -0.887833 14,000 334 313 64
2020-01-14 21:47:48 GMT 51.395874 -0.881504 14,000 334 314 0
2020-01-14 21:47:45 GMT 51.395874 -0.881504 14,000 334 314 0
2020-01-14 21:47:41 GMT 51.391621 -0.878067 14,000 334 314 -64
2020-01-14 21:47:38 GMT 51.387058 -0.874481 14,000 334 313 -64
2020-01-14 21:47:35 GMT 51.382645 -0.870963 14,000 334 313 -64
2020-01-14 21:47:32 GMT 51.375656 -0.865402 14,000 334 313 0
2020-01-14 21:47:26 GMT 51.370998 -0.861664 14,000 334 311 0
2020-01-14 21:47:23 GMT 51.367401 -0.858789 14,000 334 311 0
2020-01-14 21:47:20 GMT 51.363144 -0.855375 14,000 334 312 0
2020-01-14 21:47:17 GMT 51.359035 -0.852127 14,000 334 312 0
2020-01-14 21:47:14 GMT 51.356186 -0.849882 14,000 334 312 0
2020-01-14 21:47:11 GMT 51.352707 -0.847135 14,000 334 312 0
2020-01-14 21:47:08 GMT 51.347492 -0.843048 14,000 334 312 0
2020-01-14 21:47:05 GMT 51.340164 -0.837262 14,000 334 312 0
2020-01-14 21:47:02 GMT 51.340164 -0.837262 14,000 334 312 0
2020-01-14 21:46:59 GMT 51.332153 -0.830952 14,000 334 312 0
2020-01-14 21:46:56 GMT 51.332153 -0.830952 14,000 334 312 -64
2020-01-14 21:46:53 GMT 51.328125 -0.827760 14,000 334 311 0
2020-01-14 21:46:50 GMT 51.325424 -0.825608 14,000 334 312 0
2020-01-14 21:46:47 GMT 51.320389 -0.821599 14,000 334 311 64
2020-01-14 21:46:44 GMT 51.317184 -0.819001 14,000 334 311 0
2020-01-14 21:46:41 GMT 51.312763 -0.815506 14,000 334 311 0
2020-01-14 21:46:37 GMT 51.308395 -0.812023 14,000 334 310 0
2020-01-14 21:46:34 GMT 51.304058 -0.808563 14,000 334 309 -64
2020-01-14 21:46:31 GMT 51.300331 -0.805588 14,000 334 309 0
2020-01-14 21:46:28 GMT 51.296375 -0.802460 14,000 334 308 0
2020-01-14 21:46:25 GMT 51.293163 -0.799942 14,000 334 308 0
2020-01-14 21:46:22 GMT 51.288322 -0.796051 14,000 334 305 0
2020-01-14 21:46:19 GMT 51.281853 -0.790939 14,000 334 308 0
2020-01-14 21:46:16 GMT 51.281853 -0.790939 14,000 334 308 0
2020-01-14 21:46:13 GMT 51.278130 -0.787964 14,000 334 308 0
2020-01-14 21:46:10 GMT 51.272781 -0.783741 14,000 334 308 0
2020-01-14 21:46:07 GMT 51.268955 -0.780716 14,000 334 307 -64
2020-01-14 21:46:04 GMT 51.266304 -0.778580 14,000 334 306 -64
2020-01-14 21:46:01 GMT 51.259048 -0.772903 14,000 334 307 0
2020-01-14 21:45:58 GMT 51.254944 -0.769730 14,000 334 307 0
2020-01-14 21:45:55 GMT 51.251129 -0.766668 14,000 334 307 64
2020-01-14 21:45:52 GMT 51.251129 -0.766668 14,000 334 307 64
2020-01-14 21:45:49 GMT 51.247467 -0.763773 14,000 334 307 64
2020-01-14 21:45:46 GMT 51.242237 -0.759659 14,000 334 306 0
2020-01-14 21:45:43 GMT 51.237301 -0.755692 14,000 334 306 0
2020-01-14 21:45:40 GMT 51.234650 -0.753632 14,000 334 305 0
2020-01-14 21:45:37 GMT 51.231125 -0.750856 14,000 334 305 0
2020-01-14 21:45:34 GMT 51.228333 -0.748629 14,000 334 305 0
2020-01-14 21:45:31 GMT 51.225060 -0.746078 14,000 334 305 0
2020-01-14 21:45:28 GMT 51.216431 -0.739350 14,000 334 305 0
2020-01-14 21:45:25 GMT 51.216431 -0.739350 14,000 334 305 0
2020-01-14 21:45:22 GMT 51.213001 -0.736618 14,000 334 305 0
2020-01-14 21:45:19 GMT 51.208347 -0.732956 14,000 334 305 0
2020-01-14 21:45:16 GMT 51.204803 -0.730220 14,000 334 305 0
2020-01-14 21:45:13 GMT 51.201736 -0.727844 14,000 334 306 0
2020-01-14 21:45:10 GMT 51.197937 -0.724875 14,000 334 306 0
2020-01-14 21:45:07 GMT 51.194000 -0.721757 14,000 334 307 0
2020-01-14 21:45:04 GMT 51.190655 -0.719223 14,000 334 307 0
2020-01-14 21:45:01 GMT 51.181767 -0.712204 14,000 334 307 0
2020-01-14 21:44:58 GMT 51.181767 -0.712204 14,000 334 307 0
2020-01-14 21:44:55 GMT 51.178986 -0.710029 14,000 334 307 64
2020-01-14 21:44:52 GMT 51.175049 -0.706837 14,000 334 307 64
2020-01-14 21:44:49 GMT 51.171246 -0.703812 14,000 334 307 0
2020-01-14 21:44:46 GMT 51.168182 -0.701343 14,000 335 312 0
2020-01-14 21:44:43 GMT 51.163891 -0.697937 14,000 334 307 0
2020-01-14 21:44:40 GMT 51.159931 -0.694809 14,000 334 306 0
2020-01-14 21:44:37 GMT 51.154762 -0.690689 14,000 334 307 -64
2020-01-14 21:44:34 GMT 51.148758 -0.685959 14,000 334 307 -64
2020-01-14 21:44:28 GMT 51.139400 -0.678635 14,025 334 309 -64
2020-01-14 21:44:25 GMT 51.139400 -0.678635 14,025 334 309 -64
2020-01-14 21:44:22 GMT 51.133118 -0.673752 14,025 334 309 -64
2020-01-14 21:44:16 GMT 51.129112 -0.670624 14,000 334 310 128
2020-01-14 21:44:13 GMT 51.124329 -0.666900 14,000 334 312 128
2020-01-14 21:44:10 GMT 51.121758 -0.664902 14,000 334 312 64
2020-01-14 21:44:07 GMT 51.116451 -0.660706 14,000 334 312 0
2020-01-14 21:44:04 GMT 51.113239 -0.658188 14,000 334 312 0
2020-01-14 21:44:01 GMT 51.109238 -0.655060 14,000 334 312 0
2020-01-14 21:43:58 GMT 51.104721 -0.651550 14,000 334 312 0
2020-01-14 21:43:55 GMT 51.102493 -0.649826 14,000 334 312 0
2020-01-14 21:43:52 GMT 51.096668 -0.645218 14,000 335 312 -64
2020-01-14 21:43:49 GMT 51.093689 -0.642853 14,000 334 312 0
2020-01-14 21:43:46 GMT 51.089684 -0.639725 14,000 334 312 0
2020-01-14 21:43:42 GMT 51.080475 -0.632605 14,000 334 312 0
2020-01-14 21:43:39 GMT 51.079697 -0.632011 14,000 334 313 -64
2020-01-14 21:43:36 GMT 51.073334 -0.627037 14,000 335 312 -64
2020-01-14 21:43:30 GMT 51.069481 -0.624008 14,000 334 313 -64
2020-01-14 21:43:27 GMT 51.065945 -0.621338 14,000 334 312 -64
2020-01-14 21:43:24 GMT 51.061054 -0.617447 14,000 334 312 0
2020-01-14 21:43:21 GMT 51.057564 -0.614700 14,000 334 313 0
2020-01-14 21:43:18 GMT 51.053143 -0.611267 14,000 334 313 0
2020-01-14 21:43:15 GMT 51.050537 -0.609222 14,000 335 310 64
2020-01-14 21:43:12 GMT 51.045502 -0.605287 14,000 334 310 0
2020-01-14 21:43:09 GMT 51.037491 -0.599052 14,000 335 310 0
2020-01-14 21:43:06 GMT 51.034149 -0.596528 14,000 335 310 0
2020-01-14 21:43:03 GMT 51.034149 -0.596528 14,000 335 310 64
2020-01-14 21:43:00 GMT 51.030807 -0.593930 14,000 335 310 64
2020-01-14 21:42:54 GMT 51.022556 -0.587540 14,000 335 310 0
2020-01-14 21:42:51 GMT 51.017899 -0.583908 14,000 334 309 64
2020-01-14 21:42:48 GMT 51.010712 -0.578341 14,000 334 309 0
2020-01-14 21:42:42 GMT 51.004307 -0.573349 14,000 334 308 -64
2020-01-14 21:42:36 GMT 51.000229 -0.570176 14,000 334 307 -64
2020-01-14 21:42:33 GMT 50.996254 -0.567093 14,000 334 306 0
2020-01-14 21:42:30 GMT 50.992950 -0.564534 14,000 334 305 0
2020-01-14 21:42:27 GMT 50.988434 -0.560913 14,000 334 305 0
2020-01-14 21:42:24 GMT 50.981232 -0.555255 14,000 334 303 -64
2020-01-14 21:42:21 GMT 50.981232 -0.555255 14,000 334 302 0
2020-01-14 21:42:18 GMT 50.977261 -0.552063 14,000 334 300 0
2020-01-14 21:42:15 GMT 50.973495 -0.549094 14,000 334 300 64
2020-01-14 21:42:12 GMT 50.968555 -0.545197 14,025 334 295 0
2020-01-14 21:42:09 GMT 50.966740 -0.543747 14,025 334 292 -64
2020-01-14 21:42:06 GMT 50.961136 -0.539295 14,025 334 290 0
2020-01-14 21:42:03 GMT 50.958778 -0.537491 14,025 334 286 128
2020-01-14 21:42:00 GMT 50.955334 -0.534821 14,000 335 283 64
2020-01-14 21:41:57 GMT 50.951111 -0.531501 14,000 335 283 0
2020-01-14 21:41:54 GMT 50.948025 -0.529175 14,000 335 283 0
2020-01-14 21:41:51 GMT 50.945114 -0.526898 14,000 335 283 0
2020-01-14 21:41:48 GMT 50.941681 -0.524300 14,000 335 283 -64
2020-01-14 21:41:45 GMT 50.934402 -0.518659 14,000 334 282 -64
2020-01-14 21:41:39 GMT 50.930969 -0.515986 14,000 334 281 0
2020-01-14 21:41:36 GMT 50.925961 -0.512085 14,000 334 280 0
2020-01-14 21:41:33 GMT 50.919441 -0.507050 14,000 334 280 0
2020-01-14 21:41:30 GMT 50.919441 -0.507050 14,000 334 279 0
2020-01-14 21:41:27 GMT 50.916649 -0.504913 14,000 334 278 0
2020-01-14 21:41:24 GMT 50.912273 -0.501480 14,000 334 277 64
2020-01-14 21:41:21 GMT 50.909992 -0.499649 14,000 334 271 64
2020-01-14 21:41:18 GMT 50.905243 -0.495944 14,000 334 271 64
2020-01-14 21:41:15 GMT 50.903091 -0.494236 14,000 334 271 0
2020-01-14 21:41:12 GMT 50.899704 -0.491638 14,000 334 271 0
2020-01-14 21:41:09 GMT 50.896259 -0.488892 14,000 334 271 0
2020-01-14 21:41:06 GMT 50.891743 -0.485382 14,000 334 271 0
2020-01-14 21:41:02 GMT 50.888306 -0.482656 14,000 334 270 64
2020-01-14 21:40:59 GMT 50.884155 -0.479431 14,000 334 270 0
2020-01-14 21:40:56 GMT 50.882126 -0.477831 14,000 334 270 0
2020-01-14 21:40:53 GMT 50.874756 -0.472041 14,000 334 269 0
2020-01-14 21:40:50 GMT 50.874756 -0.472041 13,975 334 269 0
2020-01-14 21:40:47 GMT 50.868301 -0.466993 14,000 334 268 64
2020-01-14 21:40:44 GMT 50.868301 -0.466993 13,975 334 269 64
2020-01-14 21:40:41 GMT 50.864281 -0.463867 13,975 334 269 64
2020-01-14 21:40:38 GMT 50.860931 -0.461277 13,975 334 269 64
2020-01-14 21:40:35 GMT 50.858459 -0.459366 13,975 334 269 128
2020-01-14 21:40:32 GMT 50.854549 -0.456314 13,975 334 269 256
2020-01-14 21:40:29 GMT 50.851639 -0.454077 13,950 334 269 320
2020-01-14 21:40:26 GMT 50.847614 -0.450974 13,900 334 269 704
2020-01-14 21:40:23 GMT 50.839874 -0.444724 13,825 333 267 1216
2020-01-14 21:40:19 GMT 50.839874 -0.444724 13,775 332 265 1472
2020-01-14 21:40:15 GMT 50.835297 -0.440641 13,675 328 261 1472
2020-01-14 21:40:09 GMT 50.827923 -0.431290 13,425 306 236 1472
2020-01-14 21:40:06 GMT 50.825127 -0.426254 13,450 312 243 1472
2020-01-14 21:40:03 GMT 50.825127 -0.426254 13,375 307 238 1472
2020-01-14 21:39:59 GMT 50.823441 -0.422602 11,825 300 230 1472
2020-01-14 21:39:56 GMT 50.821060 -0.416367 13,250 298 229 1472
2020-01-14 21:39:53 GMT 50.820007 -0.412878 12,725 285 218 1472
2020-01-14 21:39:50 GMT 50.817764 -0.403079 13,050 286 219 1408
2020-01-14 21:39:47 GMT 50.817764 -0.403079 13,000 286 219 1408
2020-01-14 21:39:44 GMT 50.817123 -0.399219 12,875 285 219 1472
2020-01-14 21:39:41 GMT 50.816345 -0.394469 12,875 285 219 1472
2020-01-14 21:39:38 GMT 50.815678 -0.390396 12,700 285 218 1536
2020-01-14 21:39:35 GMT 50.814789 -0.385190 12,700 285 218 1472
2020-01-14 21:39:32 GMT 50.814056 -0.380736 12,650 285 218 1472
2020-01-14 21:39:29 GMT 50.813141 -0.375317 12,550 285 218 1536
2020-01-14 21:39:26 GMT 50.812374 -0.370712 12,500 285 218 1536
2020-01-14 21:39:23 GMT 50.811443 -0.365295 12,450 286 218 1536
2020-01-14 21:39:20 GMT 50.810883 -0.362091 12,350 286 218 1536
2020-01-14 21:39:17 GMT 50.810120 -0.357501 12,300 285 218 1536
2020-01-14 21:39:14 GMT 50.809254 -0.352554 12,150 285 216 1536
2020-01-14 21:39:11 GMT 50.807831 -0.343842 12,100 285 212 1472
2020-01-14 21:39:08 GMT 50.807831 -0.343842 12,050 285 216 1472
2020-01-14 21:39:05 GMT 50.806973 -0.338669 11,925 285 216 1280
2020-01-14 21:39:02 GMT 50.805996 -0.332718 11,900 285 216 1088
2020-01-14 21:38:59 GMT 50.805344 -0.328903 11,850 285 216 1088
2020-01-14 21:38:56 GMT 50.804832 -0.325851 11,775 285 215 1216
2020-01-14 21:38:53 GMT 50.804039 -0.320816 11,750 285 214 1472
2020-01-14 21:38:50 GMT 50.802567 -0.311848 11,600 285 213 1472
2020-01-14 21:38:47 GMT 50.801880 -0.307766 11,500 285 213 1472
2020-01-14 21:38:41 GMT 50.801105 -0.303116 11,475 285 212 1472
2020-01-14 21:38:38 GMT 50.800270 -0.297852 11,325 285 212 1472
2020-01-14 21:38:35 GMT 50.799572 -0.293503 11,250 285 212 1472
2020-01-14 21:38:32 GMT 50.797848 -0.282974 10,775 285 211 1472
2020-01-14 21:38:28 GMT 50.797848 -0.282974 11,075 285 211 1536
2020-01-14 21:38:25 GMT 50.797165 -0.278815 10,975 285 211 1536
2020-01-14 21:38:22 GMT 50.796543 -0.275192 10,975 285 211 1536
2020-01-14 21:38:19 GMT 50.795612 -0.269394 10,850 285 212 1472
2020-01-14 21:38:16 GMT 50.794823 -0.264587 10,825 285 212 1536
2020-01-14 21:38:13 GMT 50.794235 -0.261148 10,725 285 211 1472
2020-01-14 21:38:09 GMT 50.793240 -0.254822 10,625 285 212 1536
2020-01-14 21:38:06 GMT 50.792355 -0.249405 10,525 285 212 1536
2020-01-14 21:38:03 GMT 50.791489 -0.244372 10,450 285 211 1472
2020-01-14 21:37:59 GMT 50.789982 -0.235214 10,350 285 211 1536
2020-01-14 21:37:53 GMT 50.789051 -0.229721 10,075 285 210 1536
2020-01-14 21:37:49 GMT 50.788055 -0.223735 10,100 285 210 1536
2020-01-14 21:37:46 GMT 50.787327 -0.219345 10,075 285 210 1536
2020-01-14 21:37:43 GMT 50.786816 -0.216217 9,875 260 193 3456
2020-01-14 21:37:40 GMT 50.786041 -0.211784 9,850 285 209 1536
2020-01-14 21:37:37 GMT 50.785324 -0.207367 9,800 285 209 1536
2020-01-14 21:37:34 GMT 50.783844 -0.198199 9,650 283 209 1536
2020-01-14 21:37:28 GMT 50.782627 -0.188370 9,500 261 198 2176
2020-01-14 21:37:25 GMT 50.782627 -0.188370 9,475 273 204 1344
2020-01-14 21:37:22 GMT 50.782440 -0.183411 9,400 271 204 1344
2020-01-14 21:37:19 GMT 50.782440 -0.180359 9,375 263 199 1792
2020-01-14 21:37:16 GMT 50.782700 -0.175633 9,250 261 198 2176
2020-01-14 21:37:13 GMT 50.783066 -0.171624 9,100 260 197 2816
2020-01-14 21:37:10 GMT 50.783615 -0.166502 9,100 260 198 2624
2020-01-14 21:37:07 GMT 50.784027 -0.163162 8,825 260 194 3392
2020-01-14 21:37:04 GMT 50.784534 -0.158768 8,775 260 193 3392
2020-01-14 21:37:01 GMT 50.785217 -0.153289 8,700 260 191 3520
2020-01-14 21:36:58 GMT 50.785492 -0.150839 8,275 259 189 2432
2020-01-14 21:36:54 GMT 50.786118 -0.145798 8,300 259 188 2304
2020-01-14 21:36:51 GMT 50.787186 -0.137478 8,100 259 187 1216
2020-01-14 21:36:48 GMT 50.787689 -0.133692 8,000 259 187 192
2020-01-14 21:36:42 GMT 50.788239 -0.129312 8,000 259 187 192
2020-01-14 21:36:39 GMT 50.788773 -0.125275 8,000 259 187 0
2020-01-14 21:36:36 GMT 50.789425 -0.120087 8,000 259 187 -64
2020-01-14 21:36:32 GMT 50.789936 -0.116043 8,025 259 186 -64
2020-01-14 21:36:29 GMT 50.790958 -0.108032 8,000 259 186 -64
2020-01-14 21:36:23 GMT 50.791443 -0.104296 8,025 259 186 0
2020-01-14 21:36:19 GMT 50.792217 -0.098419 8,025 258 186 0
2020-01-14 21:36:16 GMT 50.793427 -0.089722 8,000 257 186 64
2020-01-14 21:36:13 GMT 50.793938 -0.086670 8,000 188 201 1408
2020-01-14 21:36:07 GMT 50.795521 -0.079269 8,000 246 183 64
2020-01-14 21:36:04 GMT 50.796593 -0.075684 8,000 244 183 64
2020-01-14 21:35:58 GMT 50.798035 -0.072005 7,975 233 183 64
2020-01-14 21:35:55 GMT 50.799942 -0.068207 7,975 229 184 128
2020-01-14 21:35:51 GMT 50.802036 -0.064926 7,975 219 188 256
2020-01-14 21:35:48 GMT 50.804260 -0.062206 7,900 205 193 640
2020-01-14 21:35:45 GMT 50.807281 -0.059311 7,875 186 203 1472
2020-01-14 21:35:42 GMT 50.810837 -0.056915 7,900 202 194 768
2020-01-14 21:35:36 GMT 50.813908 -0.055542 7,800 190 200 1280
2020-01-14 21:35:33 GMT 50.819275 -0.054486 7,675 178 208 1408
2020-01-14 21:35:27 GMT 50.822433 -0.054635 7,575 174 212 1408
2020-01-14 21:35:24 GMT 50.826477 -0.055695 7,500 168 216 1344
2020-01-14 21:35:21 GMT 50.829117 -0.056787 7,425 163 220 1472
2020-01-14 21:35:17 GMT 50.831879 -0.058060 7,325 162 221 1536
2020-01-14 21:35:14 GMT 50.837929 -0.060959 7,225 162 221 1536
2020-01-14 21:35:11 GMT 50.837929 -0.060959 7,200 162 221 1472
2020-01-14 21:35:08 GMT 50.841190 -0.062561 7,075 163 222 1536
2020-01-14 21:35:05 GMT 50.844028 -0.063934 7,050 163 222 1472
2020-01-14 21:35:02 GMT 50.847054 -0.065384 6,775 163 222 1536
2020-01-14 21:34:56 GMT 50.852638 -0.068130 6,850 162 222 1600
2020-01-14 21:34:53 GMT 50.855991 -0.069733 6,750 162 220 1536
2020-01-14 21:34:50 GMT 50.858692 -0.071106 6,675 162 219 1536
2020-01-14 21:34:46 GMT 50.863220 -0.073341 6,500 162 217 1152
2020-01-14 21:34:43 GMT 50.865723 -0.074615 6,500 162 217 896
2020-01-14 21:34:40 GMT 50.868210 -0.075865 6,450 162 218 256
2020-01-14 21:34:37 GMT 50.871552 -0.077572 6,450 162 218 128
2020-01-14 21:34:34 GMT 50.874798 -0.079193 6,450 162 218 0
2020-01-14 21:34:31 GMT 50.876724 -0.080096 6,450 162 218 0
2020-01-14 21:34:27 GMT 50.881256 -0.082397 6,450 162 217 0
2020-01-14 21:34:24 GMT 50.884155 -0.083847 6,450 162 218 0
2020-01-14 21:34:20 GMT 50.887024 -0.085218 6,450 162 218 0
2020-01-14 21:34:17 GMT 50.889999 -0.086703 6,450 162 218 0
2020-01-14 21:34:14 GMT 50.893467 -0.088501 6,450 162 218 0
2020-01-14 21:34:11 GMT 50.896133 -0.089821 6,450 162 218 0
2020-01-14 21:34:07 GMT 50.899799 -0.091629 6,450 162 218 0
2020-01-14 21:34:04 GMT 50.902130 -0.092790 6,450 162 218 0
2020-01-14 21:34:01 GMT 50.908596 -0.095978 6,450 163 217 0
2020-01-14 21:33:58 GMT 50.908596 -0.095978 6,450 163 217 0
2020-01-14 21:33:55 GMT 50.911880 -0.097541 6,450 162 218 0
2020-01-14 21:33:49 GMT 50.917099 -0.100065 6,450 163 218 0
2020-01-14 21:33:46 GMT 50.920746 -0.101776 6,450 163 218 0
2020-01-14 21:33:43 GMT 50.922501 -0.102589 6,450 163 217 0
2020-01-14 21:33:40 GMT 50.925842 -0.104222 6,450 163 217 0
2020-01-14 21:33:37 GMT 50.928452 -0.105409 6,450 163 217 0
2020-01-14 21:33:34 GMT 50.931358 -0.106812 6,450 163 217 0
2020-01-14 21:33:31 GMT 50.934711 -0.108414 6,450 163 216 0
2020-01-14 21:33:28 GMT 50.937195 -0.109566 6,450 163 216 0
2020-01-14 21:33:25 GMT 50.941132 -0.111422 6,450 163 217 0
2020-01-14 21:33:22 GMT 50.943146 -0.112387 6,450 163 217 0
2020-01-14 21:33:19 GMT 50.945652 -0.113602 6,450 163 217 0
2020-01-14 21:33:16 GMT 50.949280 -0.115282 6,450 163 217 0
2020-01-14 21:33:13 GMT 50.951611 -0.116425 6,450 163 217 0
2020-01-14 21:33:10 GMT 50.954865 -0.117955 6,450 163 216 64
2020-01-14 21:33:07 GMT 50.960312 -0.120553 6,450 163 216 0
2020-01-14 21:33:01 GMT 50.963562 -0.122112 6,450 163 217 64
2020-01-14 21:32:58 GMT 50.966171 -0.123373 6,425 163 216 64
2020-01-14 21:32:55 GMT 50.969345 -0.124893 6,450 163 216 64
2020-01-14 21:32:52 GMT 50.972794 -0.126495 6,450 163 216 64
2020-01-14 21:32:49 GMT 50.975773 -0.127869 6,425 163 216 64
2020-01-14 21:32:46 GMT 50.977295 -0.128570 6,425 163 217 64
2020-01-14 21:32:43 GMT 50.981049 -0.130351 6,425 163 217 128
2020-01-14 21:32:40 GMT 50.983543 -0.131607 6,425 163 217 128
2020-01-14 21:32:37 GMT 50.987083 -0.133286 6,400 162 217 192
2020-01-14 21:32:34 GMT 50.993229 -0.136337 6,400 162 216 320
2020-01-14 21:32:31 GMT 50.994370 -0.136884 6,350 162 217 512
2020-01-14 21:32:25 GMT 50.997791 -0.138626 6,225 162 217 768
2020-01-14 21:32:22 GMT 51.000771 -0.140152 6,275 161 215 1280
2020-01-14 21:32:19 GMT 51.006451 -0.143127 6,225 161 215 1344
2020-01-14 21:32:13 GMT 51.013618 -0.146790 6,025 161 213 1472
2020-01-14 21:32:09 GMT 51.013618 -0.146790 5,975 161 213 1472
2020-01-14 21:32:06 GMT 51.015621 -0.147858 5,950 159 205 1408
2020-01-14 21:32:03 GMT 51.018505 -0.149384 5,825 161 212 1472
2020-01-14 21:32:00 GMT 51.022324 -0.151367 5,750 161 211 1536
2020-01-14 21:31:57 GMT 51.024837 -0.152664 5,675 161 211 1472
2020-01-14 21:31:54 GMT 51.027237 -0.154031 5,625 160 210 1536
2020-01-14 21:31:51 GMT 51.029819 -0.155411 5,425 159 207 1472
2020-01-14 21:31:48 GMT 51.032425 -0.156937 5,450 159 207 1408
2020-01-14 21:31:45 GMT 51.035217 -0.158539 5,350 159 204 1408
2020-01-14 21:31:41 GMT 51.039368 -0.161009 5,200 158 200 1408
2020-01-14 21:31:38 GMT 51.041473 -0.162271 5,225 159 200 1408
2020-01-14 21:31:34 GMT 51.044907 -0.164350 5,150 159 199 1408
2020-01-14 21:31:31 GMT 51.047832 -0.166092 5,025 160 194 1536
2020-01-14 21:31:28 GMT 51.050400 -0.167616 5,025 160 194 1536
2020-01-14 21:31:25 GMT 51.052582 -0.168915 4,850 160 192 1600
2020-01-14 21:31:22 GMT 51.054977 -0.170288 4,900 160 194 1536
2020-01-14 21:31:19 GMT 51.058170 -0.172119 4,750 160 192 1664
2020-01-14 21:31:16 GMT 51.062622 -0.174519 4,625 160 192 1408
2020-01-14 21:31:13 GMT 51.062622 -0.174519 4,525 161 193 1600
2020-01-14 21:31:10 GMT 51.065231 -0.176004 4,550 161 191 1344
2020-01-14 21:31:07 GMT 51.067619 -0.177231 4,400 162 191 1472
2020-01-14 21:31:04 GMT 51.072556 -0.179864 4,225 161 191 1408
2020-01-14 21:30:58 GMT 51.075165 -0.181200 4,300 161 191 1664
2020-01-14 21:30:55 GMT 51.077999 -0.182724 4,025 161 191 1408
2020-01-14 21:30:51 GMT 51.084797 -0.186234 3,900 161 191 1344
2020-01-14 21:30:47 GMT 51.084797 -0.186234 3,950 162 186 1536
2020-01-14 21:30:44 GMT 51.086792 -0.187287 3,900 162 179 1472
2020-01-14 21:30:41 GMT 51.089172 -0.188475 3,850 161 184 1600
2020-01-14 21:30:38 GMT 51.092331 -0.190108 3,725 161 180 1600
2020-01-14 21:30:35 GMT 51.095078 -0.191593 3,625 172 174 -192
2020-01-14 21:30:32 GMT 51.096668 -0.192337 3,600 162 178 1088
2020-01-14 21:30:29 GMT 51.099739 -0.193863 3,450 162 178 960
2020-01-14 21:30:25 GMT 51.101715 -0.194859 3,450 163 180 512
2020-01-14 21:30:22 GMT 51.104004 -0.195898 3,450 162 180 128
2020-01-14 21:30:19 GMT 51.106396 -0.196991 3,450 162 180 128
2020-01-14 21:30:16 GMT 51.109283 -0.198441 3,450 163 180 128
2020-01-14 21:30:13 GMT 51.111610 -0.199509 3,450 166 181 64
2020-01-14 21:30:10 GMT 51.113937 -0.200500 3,450 165 181 -320
2020-01-14 21:30:06 GMT 51.117737 -0.201985 3,450 166 182 256
2020-01-14 21:30:03 GMT 51.120224 -0.203018 3,450 164 181 64
2020-01-14 21:30:00 GMT 51.122177 -0.203841 3,450 162 183 128
2020-01-14 21:29:57 GMT 51.125381 -0.205326 3,450 163 184 128
2020-01-14 21:29:53 GMT 51.127811 -0.206528 3,450 162 183 64
2020-01-14 21:29:50 GMT 51.130978 -0.208054 3,450 164 181 0
2020-01-14 21:29:45 GMT 51.134514 -0.209351 3,450 172 174 -64
2020-01-14 21:29:42 GMT 51.136642 -0.209631 3,450 175 170 -448
2020-01-14 21:29:39 GMT 51.139160 -0.209111 3,450 192 159 256
2020-01-14 21:29:36 GMT 51.141171 -0.207901 3,450 208 152 -64
2020-01-14 21:29:33 GMT 51.143082 -0.206146 3,425 220 150 192
2020-01-14 21:29:30 GMT 51.144562 -0.203841 3,425 230 150 128
2020-01-14 21:29:27 GMT 51.145935 -0.200649 3,425 244 151 -192
2020-01-14 21:29:24 GMT 51.146709 -0.197754 3,450 254 153 -192
2020-01-14 21:29:19 GMT 51.147446 -0.193597 3,450 257 155 64
2020-01-14 21:29:16 GMT 51.147949 -0.189663 3,450 258 156 256
2020-01-14 21:29:13 GMT 51.148434 -0.186081 3,450 258 156 64
2020-01-14 21:29:09 GMT 51.149460 -0.178751 3,450 258 157 192
2020-01-14 21:29:06 GMT 51.150009 -0.174816 3,450 258 157 0
2020-01-14 21:29:03 GMT 51.150009 -0.174816 3,450 258 157 64
2020-01-14 21:28:59 GMT 51.150650 -0.170214 3,425 258 160 -64
2020-01-14 21:28:56 GMT 51.151245 -0.166131 3,450 258 159 256
2020-01-14 21:28:53 GMT 51.151749 -0.162419 3,450 260 154 448
2020-01-14 21:28:50 GMT 51.152115 -0.159821 3,425 260 154 384
2020-01-14 21:28:47 GMT 51.152527 -0.156407 3,425 261 156 128
2020-01-14 21:28:44 GMT 51.152996 -0.152359 3,400 260 157 192
2020-01-14 21:28:40 GMT 51.153831 -0.145416 3,400 258 161 320
2020-01-14 21:28:37 GMT 51.154346 -0.141830 3,400 257 161 128
2020-01-14 21:28:34 GMT 51.154346 -0.141830 3,375 257 161 384
2020-01-14 21:28:29 GMT 51.155136 -0.136795 3,275 257 142 1280
2020-01-14 21:28:25 GMT 51.156006 -0.131019 3,250 257 142 1280
2020-01-14 21:28:22 GMT 51.156326 -0.128792 3,200 256 140 1472
2020-01-14 21:28:18 GMT 51.156952 -0.124817 3,075 257 136 1792
2020-01-14 21:28:15 GMT 51.157425 -0.121666 2,825 257 135 2176
2020-01-14 21:28:12 GMT 51.157883 -0.118697 2,625 258 133 2560
2020-01-14 21:28:09 GMT 51.158257 -0.116043 2,650 257 131 3584
2020-01-14 21:28:05 GMT 51.158798 -0.112536 2,500 257 132 2816
2020-01-14 21:28:02 GMT 51.159279 -0.109329 2,300 258 130 2368
2020-01-14 21:27:59 GMT 51.159698 -0.106583 2,175 258 130 2368
2020-01-14 21:27:55 GMT 51.160164 -0.103302 2,725 258 129 2176
2020-01-14 21:27:52 GMT 51.160583 -0.100287 2,050 257 127 2240
2020-01-14 21:27:48 GMT 51.161190 -0.096436 1,900 258 121 1984
2020-01-14 21:27:43 GMT 51.161682 -0.092790 1,750 258 112 832
2020-01-14 21:27:37 GMT 51.162460 -0.086777 1,725 259 120 -256
2020-01-14 21:27:33 GMT 51.163609 -0.078888 1,925 260 113 -384
2020-01-14 21:27:27 GMT 51.163609 -0.078888 1,950 259 114 -256
2020-01-14 21:27:24 GMT 51.164448 -0.072021 1,900 259 114 -832
2020-01-14 21:27:20 GMT 51.164448 -0.072021 1,925 258 114 -768
2020-01-14 21:27:16 GMT 51.164749 -0.069926 1,950 259 114 -704
2020-01-14 21:27:13 GMT 51.165436 -0.065027 2,050 258 114 -640
2020-01-14 21:27:07 GMT 51.165802 -0.062281 2,100 257 114 -896
2020-01-14 21:27:03 GMT 51.166309 -0.058746 2,125 257 116 -896
2020-01-14 21:27:00 GMT 51.166580 -0.057159 2,150 258 114 -704
2020-01-14 21:26:56 GMT 51.166992 -0.053892 2,225 258 114 -576
2020-01-14 21:26:53 GMT 51.167381 -0.051117 2,250 260 116 -384
2020-01-14 21:26:50 GMT 51.167862 -0.047360 2,250 259 116 -704
2020-01-14 21:26:47 GMT 51.168091 -0.045430 2,300 257 115 -192
2020-01-14 21:26:43 GMT 51.168545 -0.042496 2,325 258 115 -512
2020-01-14 21:26:40 GMT 51.168915 -0.039788 2,400 257 114 -384
2020-01-14 21:26:36 GMT 51.169334 -0.037003 2,625 258 112 -512
2020-01-14 21:26:33 GMT 51.169754 -0.033951 2,400 260 112 -704
2020-01-14 21:26:28 GMT 51.170517 -0.028060 2,500 258 124 -448
2020-01-14 21:26:25 GMT 51.170517 -0.028060 2,725 258 117 -832
2020-01-14 21:26:21 GMT 51.170929 -0.025016 2,525 258 114 -896
2020-01-14 21:26:18 GMT 51.171246 -0.022583 2,525 259 115 -256
2020-01-14 21:26:15 GMT 51.171707 -0.019302 2,675 259 119 -64
2020-01-14 21:26:12 GMT 51.172035 -0.017014 2,725 259 119 -1280
2020-01-14 21:26:09 GMT 51.172455 -0.013809 2,725 260 119 -1152
2020-01-14 21:26:05 GMT 51.172852 -0.010541 2,750 258 121 -512
2020-01-14 21:26:01 GMT 51.173199 -0.007782 2,800 258 121 -448
2020-01-14 21:25:58 GMT 51.173527 -0.005417 2,875 258 122 -832
2020-01-14 21:25:54 GMT 51.174084 -0.001373 2,975 257 117 -768
2020-01-14 21:25:50 GMT 51.175110 0.005569 2,900 257 114 -192
2020-01-14 21:25:47 GMT 51.175110 0.005569 2,900 256 114 -320
2020-01-14 21:25:44 GMT 51.175323 0.006829 2,925 257 112 -640
2020-01-14 21:25:41 GMT 51.175991 0.011673 2,950 259 108 0
2020-01-14 21:25:38 GMT 51.175991 0.011673 2,950 256 106 -768
2020-01-14 21:25:35 GMT 51.176422 0.014846 2,975 258 107 -576
2020-01-14 21:25:32 GMT 51.176643 0.016403 2,975 258 107 -512
2020-01-14 21:25:29 GMT 51.176971 0.018616 3,125 259 103 -640
2020-01-14 21:25:26 GMT 51.177250 0.021133 3,075 260 104 -1024
2020-01-14 21:25:22 GMT 51.177612 0.023977 3,150 257 105 -960
2020-01-14 21:25:18 GMT 51.178619 0.030435 3,200 258 109 -704
2020-01-14 21:25:14 GMT 51.178619 0.030435 3,250 258 111 -1024
2020-01-14 21:25:11 GMT 51.178940 0.032959 3,275 259 113 -768
2020-01-14 21:25:07 GMT 51.179260 0.035334 3,400 258 114 -960
2020-01-14 21:25:04 GMT 51.179581 0.037858 3,325 258 114 -960
2020-01-14 21:25:01 GMT 51.179901 0.040359 3,400 260 116 -640
2020-01-14 21:24:58 GMT 51.180313 0.043797 3,425 260 119 0
2020-01-14 21:24:55 GMT 51.180496 0.045578 3,425 259 120 192
2020-01-14 21:24:52 GMT 51.180954 0.048845 3,425 258 118 -320
2020-01-14 21:24:48 GMT 51.181458 0.052482 3,450 258 115 192
2020-01-14 21:24:41 GMT 51.182190 0.057752 3,450 259 115 64
2020-01-14 21:24:37 GMT 51.183022 0.064011 3,450 259 112 256
2020-01-14 21:24:34 GMT 51.183022 0.064011 3,450 259 113 -192
2020-01-14 21:24:31 GMT 51.183300 0.066223 3,450 259 114 0
2020-01-14 21:24:28 GMT 51.183655 0.068887 3,450 257 114 0
2020-01-14 21:24:25 GMT 51.183998 0.071030 3,450 257 119 -64
2020-01-14 21:24:21 GMT 51.184326 0.073547 3,450 259 117 -192
2020-01-14 21:24:18 GMT 51.184650 0.076065 3,450 257 119 -128
2020-01-14 21:24:15 GMT 51.185120 0.079280 3,450 256 119 -192
2020-01-14 21:24:12 GMT 51.185490 0.081863 3,450 259 114 0
2020-01-14 21:24:06 GMT 51.186188 0.086899 3,450 259 115 0
2020-01-14 21:24:03 GMT 51.186840 0.092010 3,450 260 113 64
2020-01-14 21:23:57 GMT 51.187088 0.094200 3,425 259 116 -128
2020-01-14 21:23:54 GMT 51.187397 0.096664 3,425 259 117 64
2020-01-14 21:23:51 GMT 51.187775 0.099397 3,425 257 119 -64
2020-01-14 21:23:48 GMT 51.188656 0.105286 3,450 257 117 -128
2020-01-14 21:23:45 GMT 51.189148 0.108527 3,450 259 106 -512
2020-01-14 21:23:40 GMT 51.189148 0.108527 3,450 258 108 -64
2020-01-14 21:23:36 GMT 51.189514 0.111274 3,450 259 107 -192
2020-01-14 21:23:33 GMT 51.189880 0.114169 3,450 260 106 192
2020-01-14 21:23:29 GMT 51.190331 0.117874 3,450 259 112 64
2020-01-14 21:23:25 GMT 51.190613 0.120330 3,450 258 113 -256
2020-01-14 21:23:22 GMT 51.191025 0.123299 3,450 258 109 -256
2020-01-14 21:23:19 GMT 51.191254 0.124710 3,450 258 110 -128
2020-01-14 21:23:16 GMT 51.191635 0.127335 3,475 258 106 64
2020-01-14 21:23:13 GMT 51.192379 0.132904 3,450 259 108 -384
2020-01-14 21:23:09 GMT 51.192753 0.135651 3,450 259 108 256
2020-01-14 21:23:06 GMT 51.192753 0.135651 3,450 259 108 -64
2020-01-14 21:23:03 GMT 51.192947 0.137181 3,450 259 107 -128
2020-01-14 21:23:00 GMT 51.193310 0.139771 3,450 258 109 -256
2020-01-14 21:22:57 GMT 51.193680 0.142451 3,450 258 109 -256
2020-01-14 21:22:54 GMT 51.194138 0.145569 3,450 257 109 64
2020-01-14 21:22:50 GMT 51.194412 0.147499 3,475 258 106 -192
2020-01-14 21:22:47 GMT 51.194893 0.150833 3,475 258 103 -256
2020-01-14 21:22:43 GMT 51.195126 0.152664 3,450 258 103 -64
2020-01-14 21:22:39 GMT 51.195694 0.156852 3,475 258 105 -384
2020-01-14 21:22:36 GMT 51.195965 0.158920 3,500 259 106 -128
2020-01-14 21:22:33 GMT 51.196198 0.160599 3,500 258 104 -320
2020-01-14 21:22:30 GMT 51.196522 0.162811 3,525 259 103 -256
2020-01-14 21:22:27 GMT 51.196793 0.165018 3,525 259 104 -256
2020-01-14 21:22:24 GMT 51.197174 0.167847 3,550 261 105 -384
2020-01-14 21:22:21 GMT 51.197433 0.170437 3,550 261 105 -320
2020-01-14 21:22:17 GMT 51.197685 0.172653 3,600 258 105 -640
2020-01-14 21:22:14 GMT 51.197964 0.174561 3,600 259 107 -448
2020-01-14 21:22:11 GMT 51.198303 0.177340 3,625 259 108 -384
2020-01-14 21:22:08 GMT 51.198624 0.179641 3,650 259 109 -128
2020-01-14 21:22:05 GMT 51.198944 0.182388 3,650 258 109 -128
2020-01-14 21:22:00 GMT 51.199734 0.187912 3,675 257 110 -320
2020-01-14 21:21:54 GMT 51.200500 0.193077 3,700 258 103 -320
2020-01-14 21:21:51 GMT 51.200500 0.193077 3,700 258 103 -320
2020-01-14 21:21:48 GMT 51.200775 0.194933 3,725 258 99 -448
2020-01-14 21:21:45 GMT 51.201233 0.198051 3,750 258 99 -448
2020-01-14 21:21:42 GMT 51.201416 0.199535 3,750 258 99 -448
2020-01-14 21:21:39 GMT 51.201691 0.201688 3,775 258 99 -192
2020-01-14 21:21:36 GMT 51.202015 0.203781 3,825 258 99 -384
2020-01-14 21:21:33 GMT 51.202293 0.205994 3,800 259 100 -256
2020-01-14 21:21:30 GMT 51.202469 0.207478 3,800 258 99 -256
2020-01-14 21:21:27 GMT 51.202835 0.209928 3,825 258 99 -320
2020-01-14 21:21:24 GMT 51.203178 0.212250 3,850 258 100 -448
2020-01-14 21:21:21 GMT 51.203568 0.215050 3,850 258 100 -320
2020-01-14 21:21:16 GMT 51.203979 0.218093 3,900 259 98 -320
2020-01-14 21:21:13 GMT 51.204254 0.220320 3,900 259 96 -448
2020-01-14 21:21:10 GMT 51.204529 0.222397 3,925 260 98 -320
2020-01-14 21:21:06 GMT 51.204857 0.225143 3,950 260 99 -384
2020-01-14 21:21:02 GMT 51.205215 0.228783 3,975 260 103 -256
2020-01-14 21:20:59 GMT 51.205399 0.230193 4,000 260 105 -192
2020-01-14 21:20:56 GMT 51.205673 0.232420 4,000 260 106 -320
2020-01-14 21:20:53 GMT 51.205971 0.234833 4,000 259 108 -256
2020-01-14 21:20:48 GMT 51.206577 0.239410 4,025 258 107 -192
2020-01-14 21:20:45 GMT 51.206810 0.240936 4,025 258 107 -320
2020-01-14 21:20:42 GMT 51.207092 0.243110 4,050 259 106 -384
2020-01-14 21:20:39 GMT 51.207550 0.246747 4,075 259 105 -448
2020-01-14 21:20:36 GMT 51.207649 0.247421 4,100 257 105 -384
2020-01-14 21:20:33 GMT 51.208054 0.250533 4,125 256 105 -320
2020-01-14 21:20:29 GMT 51.208557 0.253428 4,125 256 105 -128
2020-01-14 21:20:25 GMT 51.208904 0.255966 4,150 257 103 -320
2020-01-14 21:20:22 GMT 51.209278 0.258255 4,200 256 97 -192
2020-01-14 21:20:18 GMT 51.209743 0.261612 4,200 256 97 -192
2020-01-14 21:20:15 GMT 51.210022 0.263449 4,200 257 97 -256
2020-01-14 21:20:12 GMT 51.210617 0.267680 4,200 258 98 -320
2020-01-14 21:20:09 GMT 51.210617 0.267680 4,225 258 101 -384
2020-01-14 21:20:06 GMT 51.210907 0.269775 4,325 258 101 -384
2020-01-14 21:20:03 GMT 51.211258 0.272431 4,250 259 102 -384
2020-01-14 21:19:59 GMT 51.211651 0.275421 4,275 258 105 -448
2020-01-14 21:19:56 GMT 51.211945 0.277405 4,275 259 106 -384
2020-01-14 21:19:53 GMT 51.212219 0.279632 4,300 259 109 -320
2020-01-14 21:19:50 GMT 51.212490 0.281677 4,350 259 112 -384
2020-01-14 21:19:47 GMT 51.212910 0.284805 4,350 259 114 -384
2020-01-14 21:19:43 GMT 51.213272 0.287797 4,375 260 116 -320
2020-01-14 21:19:40 GMT 51.213512 0.290070 4,375 260 117 -448
2020-01-14 21:19:37 GMT 51.214352 0.296631 4,450 259 118 -512
2020-01-14 21:19:33 GMT 51.214352 0.296631 4,425 258 119 -320
2020-01-14 21:19:30 GMT 51.214630 0.298691 4,450 258 119 -320
2020-01-14 21:19:27 GMT 51.215012 0.301456 4,475 264 119 -192
2020-01-14 21:19:24 GMT 51.215378 0.303906 4,475 261 119 -192
2020-01-14 21:19:21 GMT 51.215702 0.307159 4,500 263 119 -256
2020-01-14 21:19:15 GMT 51.216110 0.312665 4,525 264 119 -384
2020-01-14 21:19:12 GMT 51.216522 0.317490 4,550 262 117 -384
2020-01-14 21:19:09 GMT 51.216522 0.317490 4,575 265 115 -256
2020-01-14 21:19:05 GMT 51.216751 0.319791 4,575 271 121 -384
2020-01-14 21:19:02 GMT 51.217007 0.323486 4,600 266 116 -256
2020-01-14 21:18:59 GMT 51.217144 0.325623 4,600 266 116 -320
2020-01-14 21:18:56 GMT 51.217300 0.328699 4,625 268 118 -384
2020-01-14 21:18:53 GMT 51.217377 0.330048 4,625 267 117 -384
2020-01-14 21:18:50 GMT 51.217468 0.333405 4,650 268 119 -384
2020-01-14 21:18:46 GMT 51.217438 0.340576 4,675 271 122 -384
2020-01-14 21:18:42 GMT 51.217438 0.340576 4,675 273 123 -384
2020-01-14 21:18:39 GMT 51.217285 0.343857 4,725 277 126 -320
2020-01-14 21:18:35 GMT 51.217052 0.347443 4,725 279 128 -320
2020-01-14 21:18:32 GMT 51.216476 0.352973 4,750 281 130 -320
2020-01-14 21:18:29 GMT 51.216476 0.352973 4,775 283 131 -320
2020-01-14 21:18:24 GMT 51.215935 0.356445 4,775 285 132 -320
2020-01-14 21:18:21 GMT 51.215378 0.359654 4,800 290 135 -320
2020-01-14 21:18:18 GMT 51.214783 0.362623 4,825 290 135 -320
2020-01-14 21:18:14 GMT 51.213089 0.369081 4,850 297 143 -320
2020-01-14 21:18:08 GMT 51.211514 0.373611 4,850 302 146 -256
2020-01-14 21:18:05 GMT 51.210800 0.375391 4,900 303 146 -256
2020-01-14 21:18:01 GMT 51.209232 0.379333 4,900 304 146 -256
2020-01-14 21:17:58 GMT 51.208252 0.381622 4,925 306 148 -256
2020-01-14 21:17:54 GMT 51.207043 0.384369 4,925 322 166 -256
2020-01-14 21:17:51 GMT 51.205582 0.387194 4,950 312 154 -192
2020-01-14 21:17:48 GMT 51.203613 0.390089 4,950 325 170 -256
2020-01-14 21:17:44 GMT 51.201363 0.392456 4,975 336 185 -256
2020-01-14 21:17:41 GMT 51.198757 0.394363 5,000 338 189 -320
2020-01-14 21:17:38 GMT 51.196152 0.395582 5,000 345 199 -320
2020-01-14 21:17:35 GMT 51.193634 0.396399 5,100 359 221 -512
2020-01-14 21:17:32 GMT 51.189468 0.396696 5,050 2 227 -576
2020-01-14 21:17:28 GMT 51.186401 0.396399 5,100 9 237 -576
2020-01-14 21:17:25 GMT 51.182278 0.395279 5,100 12 240 -576
2020-01-14 21:17:22 GMT 51.179996 0.394440 5,125 14 243 -448
2020-01-14 21:17:19 GMT 51.176743 0.393132 5,150 14 243 -448
2020-01-14 21:17:16 GMT 51.172455 0.391464 5,175 13 244 -512
2020-01-14 21:17:13 GMT 51.168961 0.390015 5,250 14 246 -640
2020-01-14 21:17:09 GMT 51.164429 0.388233 5,275 14 247 -640
2020-01-14 21:17:06 GMT 51.162094 0.387268 5,275 14 247 -640
2020-01-14 21:17:03 GMT 51.158890 0.385932 5,300 14 248 -640
2020-01-14 21:17:00 GMT 51.152023 0.382888 5,375 16 250 -704
2020-01-14 21:16:54 GMT 51.148899 0.381317 5,400 17 252 -704
2020-01-14 21:16:51 GMT 51.146152 0.379868 5,425 21 254 -256
2020-01-14 21:16:48 GMT 51.139450 0.375214 5,450 29 261 0
2020-01-14 21:16:42 GMT 51.136093 0.371976 5,450 36 266 0
2020-01-14 21:16:39 GMT 51.133163 0.368500 5,450 40 268 0
2020-01-14 21:16:36 GMT 51.129395 0.363007 5,450 47 271 0
2020-01-14 21:16:33 GMT 51.127300 0.359268 5,450 48 272 0
2020-01-14 21:16:30 GMT 51.125610 0.355794 5,450 54 274 -64
2020-01-14 21:16:27 GMT 51.122864 0.349261 5,450 57 274 -64
2020-01-14 21:16:24 GMT 51.121525 0.345764 5,450 58 275 0
2020-01-14 21:16:21 GMT 51.119156 0.339611 5,450 58 274 0
2020-01-14 21:16:17 GMT 51.116264 0.331955 5,450 59 276 0
2020-01-14 21:16:14 GMT 51.114578 0.327437 5,450 58 276 0
2020-01-14 21:16:09 GMT 51.111145 0.318381 5,450 58 280 0
2020-01-14 21:16:05 GMT 51.108444 0.311356 5,450 58 282 -64
2020-01-14 21:16:00 GMT 51.105423 0.303312 5,450 58 285 -128
2020-01-14 21:15:57 GMT 51.102814 0.296478 5,475 58 290 -320
2020-01-14 21:15:54 GMT 51.101044 0.291901 5,500 58 290 -320
2020-01-14 21:15:51 GMT 51.096359 0.279558 5,550 59 295 -768
2020-01-14 21:15:47 GMT 51.096359 0.279558 5,575 58 295 -832
2020-01-14 21:15:44 GMT 51.093826 0.272827 5,600 58 296 -832
2020-01-14 21:15:40 GMT 51.088531 0.258847 5,650 59 298 -704
2020-01-14 21:15:36 GMT 51.088531 0.258847 5,700 59 298 -640
2020-01-14 21:15:33 GMT 51.085693 0.251275 5,750 59 300 -640
2020-01-14 21:15:30 GMT 51.084332 0.247726 5,750 59 300 -640
2020-01-14 21:15:27 GMT 51.081802 0.241105 5,800 58 302 -640
2020-01-14 21:15:24 GMT 51.079769 0.235748 5,800 59 303 -1280
2020-01-14 21:15:21 GMT 51.077675 0.230255 5,850 59 303 -1024
2020-01-14 21:15:18 GMT 51.075531 0.224477 5,900 59 303 -1344
2020-01-14 21:15:15 GMT 51.071503 0.213788 6,100 59 302 -1472
2020-01-14 21:15:08 GMT 51.068783 0.206528 6,300 59 301 -1216
2020-01-14 21:15:05 GMT 51.065338 0.197449 6,250 59 301 -1024
2020-01-14 21:15:01 GMT 51.061249 0.186545 6,325 59 301 -1088
2020-01-14 21:14:58 GMT 51.061249 0.186545 6,375 59 302 -832
2020-01-14 21:14:55 GMT 51.058819 0.180130 6,400 59 302 -704
2020-01-14 21:14:52 GMT 51.057404 0.176301 6,425 59 302 -512
2020-01-14 21:14:49 GMT 51.054291 0.168061 6,450 59 304 -128
2020-01-14 21:14:46 GMT 51.052963 0.164424 6,475 59 306 64
2020-01-14 21:14:43 GMT 51.050446 0.157669 6,475 59 305 0
2020-01-14 21:14:40 GMT 51.048477 0.152472 6,450 59 306 -128
2020-01-14 21:14:37 GMT 51.046204 0.146255 6,500 59 304 -512
2020-01-14 21:14:34 GMT 51.043320 0.138474 6,475 59 306 -64
2020-01-14 21:14:31 GMT 51.039642 0.128632 6,475 59 304 -320
2020-01-14 21:14:28 GMT 51.039642 0.128632 6,475 59 304 -256
2020-01-14 21:14:24 GMT 51.037033 0.121536 6,725 59 302 -1280
2020-01-14 21:14:21 GMT 51.035030 0.116119 6,525 59 304 -640
2020-01-14 21:14:18 GMT 51.029846 0.102069 6,575 59 304 -832
2020-01-14 21:14:14 GMT 51.029846 0.102069 6,725 59 302 -1280
2020-01-14 21:14:11 GMT 51.027023 0.094299 6,700 59 304 -1280
2020-01-14 21:14:08 GMT 51.025314 0.089672 6,750 59 302 -1280
2020-01-14 21:14:05 GMT 51.023300 0.084105 6,875 59 302 -1216
2020-01-14 21:14:02 GMT 51.021240 0.078537 6,850 59 302 -1216
2020-01-14 21:13:59 GMT 51.017387 0.068054 6,925 59 301 -1344
2020-01-14 21:13:56 GMT 51.017387 0.068054 7,725 59 298 -960
2020-01-14 21:13:53 GMT 51.014317 0.059738 7,100 59 298 -1472
2020-01-14 21:13:50 GMT 51.012222 0.054041 7,150 59 298 -1408
2020-01-14 21:13:47 GMT 51.008652 0.044465 7,275 59 297 -960
2020-01-14 21:13:44 GMT 51.007050 0.040159 7,300 59 296 -1408
2020-01-14 21:13:38 GMT 51.004215 0.032501 7,425 59 296 -1216
2020-01-14 21:13:35 GMT 51.001747 0.025940 7,525 59 297 -1024
2020-01-14 21:13:31 GMT 50.999359 0.019671 7,550 59 297 -960
2020-01-14 21:13:27 GMT 50.994827 0.007646 7,675 58 298 -960
2020-01-14 21:13:24 GMT 50.994827 0.007646 7,650 59 300 -960
2020-01-14 21:13:21 GMT 50.991833 -0.000229 7,725 59 300 -1024
2020-01-14 21:13:17 GMT 50.989365 -0.006866 7,775 59 300 -832
2020-01-14 21:13:11 GMT 50.985920 -0.015945 7,825 59 301 -832
2020-01-14 21:13:08 GMT 50.983265 -0.022964 7,875 59 301 -768
2020-01-14 21:13:05 GMT 50.981277 -0.028282 7,900 59 301 -768
2020-01-14 21:13:02 GMT 50.978611 -0.035324 7,975 59 302 -448
2020-01-14 21:12:59 GMT 50.976471 -0.041050 7,975 59 304 -64
2020-01-14 21:12:53 GMT 50.972763 -0.050997 8,000 59 304 -64
2020-01-14 21:12:50 GMT 50.969440 -0.059814 8,000 59 304 -64
2020-01-14 21:12:46 GMT 50.964661 -0.072599 8,000 59 304 -64
2020-01-14 21:12:42 GMT 50.964661 -0.072599 8,000 59 304 -64
2020-01-14 21:12:39 GMT 50.960495 -0.083734 8,000 59 304 0
2020-01-14 21:12:36 GMT 50.960495 -0.083734 8,000 59 304 0
2020-01-14 21:12:33 GMT 50.958252 -0.089672 8,000 59 305 0
2020-01-14 21:12:30 GMT 50.955986 -0.095825 8,025 59 305 -64
2020-01-14 21:12:27 GMT 50.953472 -0.102615 8,025 60 305 -64
2020-01-14 21:12:23 GMT 50.950726 -0.110397 8,025 61 304 64
2020-01-14 21:12:19 GMT 50.948273 -0.117435 8,025 62 304 64
2020-01-14 21:12:16 GMT 50.946396 -0.123444 8,000 66 303 64
2020-01-14 21:12:13 GMT 50.944443 -0.130615 8,000 70 303 0
2020-01-14 21:12:10 GMT 50.943558 -0.134735 8,000 76 301 0
2020-01-14 21:12:07 GMT 50.942348 -0.141830 8,000 91 293 -64
2020-01-14 21:12:04 GMT 50.941635 -0.147870 8,000 82 298 0
2020-01-14 21:12:01 GMT 50.941090 -0.156937 8,000 85 296 0
2020-01-14 21:11:58 GMT 50.941090 -0.161514 8,000 91 293 -64
2020-01-14 21:11:55 GMT 50.941277 -0.167236 8,000 96 288 0
2020-01-14 21:11:52 GMT 50.943283 -0.183130 8,000 107 277 0
2020-01-14 21:11:48 GMT 50.943283 -0.183130 8,000 108 275 0
2020-01-14 21:11:45 GMT 50.944859 -0.189819 8,000 112 271 0
2020-01-14 21:11:41 GMT 50.946716 -0.195824 8,000 122 258 0
2020-01-14 21:11:38 GMT 50.948776 -0.201094 8,000 125 254 0
2020-01-14 21:11:35 GMT 50.949829 -0.203396 8,000 152 221 0
2020-01-14 21:11:32 GMT 50.952354 -0.208054 8,000 136 241 0
2020-01-14 21:11:29 GMT 50.958591 -0.216141 8,000 146 228 0
2020-01-14 21:11:26 GMT 50.958591 -0.216141 8,000 148 226 0
2020-01-14 21:11:20 GMT 50.962738 -0.219578 8,000 161 211 0
2020-01-14 21:11:17 GMT 50.966217 -0.221360 8,000 166 206 64
2020-01-14 21:11:14 GMT 50.968414 -0.222015 8,000 179 194 0
2020-01-14 21:11:11 GMT 50.971481 -0.222325 8,000 182 192 64
2020-01-14 21:11:08 GMT 50.973999 -0.221879 8,000 196 182 64
2020-01-14 21:11:05 GMT 50.976097 -0.221176 8,000 196 182 64
2020-01-14 21:11:02 GMT 50.980938 -0.217285 8,000 219 172 64
2020-01-14 21:10:56 GMT 50.983658 -0.212675 8,000 243 169 64
2020-01-14 21:10:50 GMT 50.985268 -0.207520 7,975 254 171 64
2020-01-14 21:10:44 GMT 50.985920 -0.201187 8,000 272 178 -64
2020-01-14 21:10:41 GMT 50.985855 -0.197754 8,000 277 181 -64
2020-01-14 21:10:38 GMT 50.985580 -0.194488 8,000 283 184 -64
2020-01-14 21:10:35 GMT 50.985035 -0.190582 8,000 285 184 0
2020-01-14 21:10:32 GMT 50.983917 -0.184021 8,000 285 185 -64
2020-01-14 21:10:29 GMT 50.982697 -0.176301 8,000 285 185 0
2020-01-14 21:10:25 GMT 50.982697 -0.176301 8,000 285 185 0
2020-01-14 21:10:22 GMT 50.982239 -0.173629 8,000 285 185 64
2020-01-14 21:10:19 GMT 50.981415 -0.168655 8,000 286 184 0
2020-01-14 21:10:16 GMT 50.980751 -0.164642 8,000 286 184 0
2020-01-14 21:10:13 GMT 50.979858 -0.159524 8,000 286 184 0
2020-01-14 21:10:10 GMT 50.979446 -0.157075 8,000 286 184 0
2020-01-14 21:10:07 GMT 50.978714 -0.152918 8,000 286 185 0
2020-01-14 21:10:04 GMT 50.978004 -0.149002 8,000 286 185 0
2020-01-14 21:10:01 GMT 50.977169 -0.144272 8,000 287 186 -64
2020-01-14 21:09:58 GMT 50.976330 -0.139694 8,000 287 186 0
2020-01-14 21:09:54 GMT 50.975693 -0.136290 8,000 287 186 0
2020-01-14 21:09:50 GMT 50.974731 -0.131242 8,000 286 186 0
2020-01-14 21:09:47 GMT 50.973907 -0.126640 8,000 286 185 0
2020-01-14 21:09:44 GMT 50.973267 -0.122854 8,000 286 185 0
2020-01-14 21:09:41 GMT 50.972607 -0.118866 8,000 359 260 0
2020-01-14 21:09:38 GMT 50.971954 -0.115128 8,000 286 185 64
2020-01-14 21:09:35 GMT 50.971161 -0.110245 8,000 286 185 64
2020-01-14 21:09:31 GMT 50.970230 -0.105515 8,000 291 190 0
2020-01-14 21:09:28 GMT 50.967999 -0.097275 8,000 326 221 0
2020-01-14 21:09:24 GMT 50.967999 -0.097275 8,000 300 196 0
2020-01-14 21:09:21 GMT 50.965996 -0.091629 8,000 308 205 0
2020-01-14 21:09:18 GMT 50.965202 -0.089798 8,000 306 202 0
2020-01-14 21:09:15 GMT 50.963425 -0.085961 8,000 314 209 0
2020-01-14 21:09:12 GMT 50.961060 -0.081558 8,000 315 210 0
2020-01-14 21:09:08 GMT 50.958313 -0.077362 8,000 319 214 0
2020-01-14 21:09:05 GMT 50.956360 -0.074844 8,000 335 233 -64
2020-01-14 21:09:02 GMT 50.953903 -0.072005 8,000 327 223 0
2020-01-14 21:08:59 GMT 50.948353 -0.066986 8,000 340 237 0
2020-01-14 21:08:56 GMT 50.944443 -0.064392 8,000 338 235 0
2020-01-14 21:08:50 GMT 50.941269 -0.062726 8,025 359 260 0
2020-01-14 21:08:47 GMT 50.939182 -0.061874 8,025 348 247 0
2020-01-14 21:08:41 GMT 50.931290 -0.060202 8,025 359 260 0
2020-01-14 21:08:38 GMT 50.924103 -0.060722 8,000 5 267 0
2020-01-14 21:08:35 GMT 50.924103 -0.060722 8,000 8 271 64
2020-01-14 21:08:29 GMT 50.917812 -0.062866 8,000 20 282 0
2020-01-14 21:08:26 GMT 50.913300 -0.065536 8,000 26 287 0
2020-01-14 21:08:23 GMT 50.910461 -0.067774 8,000 40 296 0
2020-01-14 21:08:20 GMT 50.906891 -0.071263 8,000 37 295 64
2020-01-14 21:08:17 GMT 50.900894 -0.079502 8,000 44 299 0
2020-01-14 21:08:14 GMT 50.897938 -0.085068 8,000 51 302 0
2020-01-14 21:08:11 GMT 50.897938 -0.085068 8,000 53 302 0
2020-01-14 21:08:08 GMT 50.895607 -0.090561 8,000 63 302 0
2020-01-14 21:08:05 GMT 50.893799 -0.095759 8,000 65 302 0
2020-01-14 21:08:02 GMT 50.891651 -0.104218 8,000 85 295 0
2020-01-14 21:07:59 GMT 50.889881 -0.116577 8,000 81 296 0
2020-01-14 21:07:56 GMT 50.889881 -0.116577 8,000 85 295 0
2020-01-14 21:07:53 GMT 50.889603 -0.120850 8,000 89 293 0
2020-01-14 21:07:50 GMT 50.889462 -0.129395 8,000 89 293 0
2020-01-14 21:07:47 GMT 50.889648 -0.134506 8,000 96 288 0
2020-01-14 21:07:44 GMT 50.890182 -0.141560 8,000 98 286 0
2020-01-14 21:07:41 GMT 50.890823 -0.146682 8,000 102 282 -64
2020-01-14 21:07:38 GMT 50.892014 -0.154699 8,000 103 281 0
2020-01-14 21:07:35 GMT 50.892582 -0.158463 8,000 103 281 0
2020-01-14 21:07:32 GMT 50.893841 -0.166473 8,000 103 281 -64
2020-01-14 21:07:29 GMT 50.894398 -0.170059 8,000 103 281 -64
2020-01-14 21:07:26 GMT 50.896587 -0.184708 8,000 104 279 64
2020-01-14 21:07:22 GMT 50.896587 -0.184708 8,000 103 283 -64
2020-01-14 21:07:19 GMT 50.897507 -0.191147 8,000 103 283 -64
2020-01-14 21:07:16 GMT 50.898331 -0.196640 8,025 103 282 0
2020-01-14 21:07:13 GMT 50.899246 -0.202876 8,025 103 282 0
2020-01-14 21:07:10 GMT 50.900124 -0.208893 8,025 103 281 0
2020-01-14 21:07:07 GMT 50.901100 -0.215073 8,025 104 279 64
2020-01-14 21:07:04 GMT 50.902496 -0.223587 8,000 106 278 128
2020-01-14 21:07:01 GMT 50.904453 -0.232697 8,000 112 271 0
2020-01-14 21:06:58 GMT 50.905476 -0.236511 8,000 114 268 0
2020-01-14 21:06:52 GMT 50.908222 -0.244064 8,000 126 256 0
2020-01-14 21:06:49 GMT 50.909157 -0.246201 8,000 127 253 -64
2020-01-14 21:06:46 GMT 50.911697 -0.251275 8,000 135 243 0
2020-01-14 21:06:43 GMT 50.914124 -0.255358 8,000 135 243 0
2020-01-14 21:06:40 GMT 50.920074 -0.263004 8,000 149 225 0
2020-01-14 21:06:37 GMT 50.922638 -0.265528 8,000 148 226 0
2020-01-14 21:06:31 GMT 50.924843 -0.267410 8,000 152 221 0
2020-01-14 21:06:28 GMT 50.927032 -0.269017 8,000 165 206 0
2020-01-14 21:06:25 GMT 50.930374 -0.270947 8,000 162 210 0
2020-01-14 21:06:22 GMT 50.934631 -0.272728 8,000 169 202 0
2020-01-14 21:06:18 GMT 50.939274 -0.273819 8,000 174 197 0
2020-01-14 21:06:12 GMT 50.945114 -0.273990 8,000 182 191 0
2020-01-14 21:06:09 GMT 50.947372 -0.273666 8,000 186 187 0
2020-01-14 21:06:06 GMT 50.949921 -0.273174 8,000 190 184 0
2020-01-14 21:06:03 GMT 50.952774 -0.272293 8,000 192 182 0
2020-01-14 21:06:00 GMT 50.952774 -0.272293 8,000 196 181 0
2020-01-14 21:05:57 GMT 50.954727 -0.271540 8,000 198 179 0
2020-01-14 21:05:54 GMT 50.957336 -0.270204 8,000 201 178 0
2020-01-14 21:05:51 GMT 50.959579 -0.268868 8,000 202 177 0
2020-01-14 21:05:48 GMT 50.961456 -0.267606 8,000 208 175 0
2020-01-14 21:05:45 GMT 50.964844 -0.264860 8,000 209 174 0
2020-01-14 21:05:42 GMT 50.966263 -0.263449 8,000 220 173 0
2020-01-14 21:05:39 GMT 50.968872 -0.260703 8,000 220 173 0
2020-01-14 21:05:36 GMT 50.969971 -0.259366 8,000 218 174 0
2020-01-14 21:05:33 GMT 50.971985 -0.256620 8,000 223 173 0
2020-01-14 21:05:30 GMT 50.973999 -0.253576 8,000 233 173 0
2020-01-14 21:05:27 GMT 50.976700 -0.248603 8,000 234 173 0
2020-01-14 21:05:21 GMT 50.978146 -0.245514 8,000 244 172 0
2020-01-14 21:05:18 GMT 50.980751 -0.238724 8,000 243 173 0
2020-01-14 21:05:15 GMT 50.980751 -0.238724 8,000 244 172 0
2020-01-14 21:05:12 GMT 50.982056 -0.234680 8,000 247 172 0
2020-01-14 21:05:09 GMT 50.983109 -0.230713 8,000 249 172 0
2020-01-14 21:05:06 GMT 50.983612 -0.228412 8,000 253 173 0
2020-01-14 21:05:03 GMT 50.984337 -0.224991 8,000 254 173 64
2020-01-14 21:05:00 GMT 50.984940 -0.221285 8,000 259 173 0
2020-01-14 21:04:57 GMT 50.985443 -0.217648 8,000 261 174 0
2020-01-14 21:04:54 GMT 50.985779 -0.213852 8,000 263 175 0
2020-01-14 21:04:50 GMT 50.986084 -0.207849 8,000 271 178 0
2020-01-14 21:04:47 GMT 50.986038 -0.204583 8,000 273 179 0
2020-01-14 21:04:44 GMT 50.985489 -0.195972 8,000 281 185 -64
2020-01-14 21:04:41 GMT 50.985489 -0.195972 8,000 281 185 -64
2020-01-14 21:04:37 GMT 50.984665 -0.189960 8,000 284 186 0
2020-01-14 21:04:34 GMT 50.984207 -0.187213 8,000 285 187 0
2020-01-14 21:04:31 GMT 50.983017 -0.180087 8,000 292 190 0
2020-01-14 21:04:25 GMT 50.982101 -0.174668 8,000 286 187 0
2020-01-14 21:04:22 GMT 50.981644 -0.171921 8,000 286 186 0
2020-01-14 21:04:19 GMT 50.980865 -0.167542 8,000 286 186 0
2020-01-14 21:04:16 GMT 50.980225 -0.163756 8,000 286 186 0
2020-01-14 21:04:13 GMT 50.979492 -0.159673 8,000 286 186 0
2020-01-14 21:04:09 GMT 50.978485 -0.153883 8,000 286 187 0
2020-01-14 21:04:06 GMT 50.977680 -0.149384 8,000 286 187 0
2020-01-14 21:04:03 GMT 50.976330 -0.141983 8,000 286 187 0
2020-01-14 21:04:00 GMT 50.976330 -0.141983 8,000 286 186 0
2020-01-14 21:03:57 GMT 50.975739 -0.138443 8,000 285 186 0
2020-01-14 21:03:53 GMT 50.974606 -0.131760 8,000 285 185 0
2020-01-14 21:03:50 GMT 50.973541 -0.125007 8,000 284 185 64
2020-01-14 21:03:47 GMT 50.973026 -0.121613 8,000 284 185 64
2020-01-14 21:03:44 GMT 50.973026 -0.121613 8,000 285 185 64
2020-01-14 21:03:41 GMT 50.972092 -0.115967 8,000 287 186 0
2020-01-14 21:03:38 GMT 50.971298 -0.112016 8,000 291 189 0
2020-01-14 21:03:35 GMT 50.970695 -0.109558 8,000 299 196 -64
2020-01-14 21:03:32 GMT 50.969719 -0.106125 8,000 297 194 -64
2020-01-14 21:03:29 GMT 50.966904 -0.098209 8,000 302 198 -64
2020-01-14 21:03:23 GMT 50.965019 -0.093689 8,025 308 203 -64
2020-01-14 21:03:20 GMT 50.962051 -0.087742 8,025 319 212 64
2020-01-14 21:03:17 GMT 50.959717 -0.083511 8,025 314 208 -64
2020-01-14 21:03:14 GMT 50.959717 -0.083511 8,025 315 208 0
2020-01-14 21:03:11 GMT 50.957989 -0.080795 8,025 319 212 64
2020-01-14 21:03:08 GMT 50.955414 -0.077053 8,025 322 215 64
2020-01-14 21:03:05 GMT 50.953007 -0.074158 8,000 327 221 64
2020-01-14 21:03:02 GMT 50.951477 -0.072525 8,000 56 304 64
2020-01-14 21:02:59 GMT 50.947815 -0.069555 8,000 349 247 0
2020-01-14 21:02:56 GMT 50.945206 -0.068145 8,000 349 247 0
2020-01-14 21:02:52 GMT 50.941418 -0.066910 8,000 358 259 0
2020-01-14 21:02:49 GMT 50.937103 -0.066586 8,000 2 265 64
2020-01-14 21:02:46 GMT 50.927307 -0.069333 8,000 15 279 0
2020-01-14 21:02:42 GMT 50.927307 -0.069333 8,000 20 284 0
2020-01-14 21:02:38 GMT 50.919891 -0.074900 8,000 34 295 64
2020-01-14 21:02:32 GMT 50.916279 -0.078888 8,000 38 297 0
2020-01-14 21:02:28 GMT 50.912979 -0.083511 8,000 49 301 64
2020-01-14 21:02:25 GMT 50.907394 -0.094572 8,000 58 305 64
2020-01-14 21:02:19 GMT 50.905525 -0.099564 8,000 64 305 64
2020-01-14 21:02:16 GMT 50.903595 -0.106449 7,975 91 293 0
2020-01-14 21:02:13 GMT 50.901939 -0.114975 8,000 76 302 -64
2020-01-14 21:02:10 GMT 50.901352 -0.120182 8,000 83 298 -64
2020-01-14 21:02:07 GMT 50.900848 -0.127308 8,000 88 295 0
2020-01-14 21:02:04 GMT 50.900757 -0.132281 8,000 94 290 -64
2020-01-14 21:02:01 GMT 50.900867 -0.137405 8,000 95 290 -64
2020-01-14 21:01:58 GMT 50.901382 -0.144730 8,000 97 287 -64
2020-01-14 21:01:55 GMT 50.902176 -0.151730 8,000 101 283 -64
2020-01-14 21:01:52 GMT 50.903568 -0.161133 8,000 103 281 0
2020-01-14 21:01:49 GMT 50.904739 -0.169175 8,000 103 281 -64
2020-01-14 21:01:43 GMT 50.906616 -0.181943 8,025 103 279 -64
2020-01-14 21:01:40 GMT 50.906616 -0.181943 8,025 103 280 -64
2020-01-14 21:01:37 GMT 50.907349 -0.186916 8,025 103 279 -64
2020-01-14 21:01:34 GMT 50.908688 -0.195847 8,025 103 278 0
2020-01-14 21:01:31 GMT 50.909248 -0.199432 8,025 104 277 64
2020-01-14 21:01:28 GMT 50.910278 -0.205697 8,000 105 276 64
2020-01-14 21:01:25 GMT 50.911285 -0.211338 8,000 111 271 64
2020-01-14 21:01:22 GMT 50.912338 -0.216460 8,000 111 271 64
2020-01-14 21:01:19 GMT 50.913765 -0.221939 8,000 122 259 0
2020-01-14 21:01:16 GMT 50.915497 -0.227001 8,000 122 259 0
2020-01-14 21:01:13 GMT 50.920166 -0.236800 8,000 133 246 0
2020-01-14 21:01:06 GMT 50.926517 -0.245361 8,000 150 225 0
2020-01-14 21:01:03 GMT 50.926517 -0.245361 8,000 146 229 0
2020-01-14 21:01:00 GMT 50.928772 -0.247564 8,000 151 223 0
2020-01-14 21:00:57 GMT 50.931976 -0.250162 8,000 155 220 0
2020-01-14 21:00:54 GMT 50.937691 -0.253372 8,000 162 212 0
2020-01-14 21:00:51 GMT 50.937691 -0.253372 8,000 167 208 0
2020-01-14 21:00:47 GMT 50.940399 -0.254319 8,000 172 203 0
2020-01-14 21:00:44 GMT 50.943230 -0.254974 8,000 181 197 0
2020-01-14 21:00:41 GMT 50.946163 -0.255280 8,000 188 191 0
2020-01-14 21:00:37 GMT 50.949875 -0.255209 8,000 188 191 0
2020-01-14 21:00:34 GMT 50.952915 -0.254593 8,000 191 189 0
2020-01-14 21:00:31 GMT 50.955379 -0.253830 8,000 195 187 0
2020-01-14 21:00:28 GMT 50.957886 -0.252834 8,000 200 184 0
2020-01-14 21:00:25 GMT 50.960220 -0.251572 8,000 201 183 0
2020-01-14 21:00:22 GMT 50.964111 -0.248825 8,000 210 180 -64
2020-01-14 21:00:16 GMT 50.967316 -0.245856 8,000 215 178 0
2020-01-14 21:00:13 GMT 50.968788 -0.244217 8,000 217 177 0
2020-01-14 21:00:10 GMT 50.971069 -0.241470 8,000 220 176 0
2020-01-14 21:00:07 GMT 50.972324 -0.239639 8,000 224 174 0
2020-01-14 21:00:04 GMT 50.974731 -0.235835 8,000 228 174 0
2020-01-14 21:00:01 GMT 50.975910 -0.233765 8,000 230 173 0
2020-01-14 20:59:58 GMT 50.977432 -0.230787 8,000 260 176 0
2020-01-14 20:59:55 GMT 50.978703 -0.227890 8,000 238 172 64
2020-01-14 20:59:52 GMT 50.981079 -0.221558 8,000 243 173 64
2020-01-14 20:59:46 GMT 50.983109 -0.213640 8,000 252 174 0
2020-01-14 20:59:43 GMT 50.983109 -0.213640 8,000 255 175 0
2020-01-14 20:59:40 GMT 50.983749 -0.209854 8,000 257 176 0
2020-01-14 20:59:37 GMT 50.984150 -0.206757 8,000 269 180 0
2020-01-14 20:59:34 GMT 50.984436 -0.203173 8,000 269 180 0
2020-01-14 20:59:31 GMT 50.984661 -0.199280 8,000 268 180 0
2020-01-14 20:59:28 GMT 50.984756 -0.195304 8,000 269 180 0
2020-01-14 20:59:25 GMT 50.984802 -0.191345 8,000 269 180 0
2020-01-14 20:59:22 GMT 50.984894 -0.186916 8,000 270 179 -64
2020-01-14 20:59:19 GMT 50.984894 -0.183487 8,000 270 179 -64
2020-01-14 20:59:16 GMT 50.984943 -0.178375 8,000 270 178 -64
2020-01-14 20:59:13 GMT 50.984985 -0.175484 8,000 270 176 0
2020-01-14 20:59:10 GMT 50.984985 -0.171476 8,000 270 176 0
2020-01-14 20:59:07 GMT 50.985031 -0.167022 8,000 270 174 64
2020-01-14 20:59:04 GMT 50.985035 -0.164185 8,000 270 173 64
2020-01-14 20:59:00 GMT 50.985081 -0.158539 8,000 269 172 0
2020-01-14 20:58:57 GMT 50.985123 -0.155219 8,000 269 172 0
2020-01-14 20:58:54 GMT 50.985168 -0.150468 8,000 271 173 0
2020-01-14 20:58:51 GMT 50.985260 -0.147647 8,000 268 172 64
2020-01-14 20:58:48 GMT 50.985409 -0.142136 8,000 269 172 64
2020-01-14 20:58:45 GMT 50.985409 -0.139771 8,000 271 173 0
2020-01-14 20:58:42 GMT 50.985409 -0.136337 8,000 273 174 0
2020-01-14 20:58:39 GMT 50.985268 -0.131836 8,000 275 174 0
2020-01-14 20:58:36 GMT 50.984474 -0.123901 8,000 282 178 -64
2020-01-14 20:58:33 GMT 50.984474 -0.123901 8,000 286 180 -64
2020-01-14 20:58:30 GMT 50.983749 -0.119588 8,000 295 187 64
2020-01-14 20:58:26 GMT 50.982941 -0.115509 8,000 295 187 64
2020-01-14 20:58:22 GMT 50.981590 -0.110245 8,000 359 252 -64
2020-01-14 20:58:19 GMT 50.980473 -0.106354 8,000 62 294 0
2020-01-14 20:58:15 GMT 50.978985 -0.102081 8,000 301 192 0
2020-01-14 20:58:12 GMT 50.977203 -0.097689 8,000 305 194 0
2020-01-14 20:58:09 GMT 50.976196 -0.095314 8,000 308 196 0
2020-01-14 20:58:05 GMT 50.971210 -0.086517 8,000 318 205 0
2020-01-14 20:58:02 GMT 50.971210 -0.086517 8,000 319 206 0
2020-01-14 20:57:59 GMT 50.969440 -0.084000 8,000 321 208 64
2020-01-14 20:57:56 GMT 50.967903 -0.081940 8,000 324 211 0
2020-01-14 20:57:53 GMT 50.964272 -0.077896 8,000 332 219 -64
2020-01-14 20:57:50 GMT 50.962456 -0.076218 8,000 334 222 0
2020-01-14 20:57:47 GMT 50.959476 -0.073700 8,000 336 224 0
2020-01-14 20:57:44 GMT 50.952805 -0.069778 8,000 346 237 0
2020-01-14 20:57:41 GMT 50.952805 -0.069778 8,000 348 238 0
2020-01-14 20:57:38 GMT 50.947979 -0.067978 8,000 351 242 0
2020-01-14 20:57:35 GMT 50.942905 -0.066986 8,000 353 245 0
2020-01-14 20:57:32 GMT 50.942905 -0.066986 8,000 359 252 -64
2020-01-14 20:57:29 GMT 50.940582 -0.066883 8,000 1 256 0
2020-01-14 20:57:26 GMT 50.936806 -0.067062 8,000 4 258 64
2020-01-14 20:57:23 GMT 50.933121 -0.067700 8,000 7 262 0
2020-01-14 20:57:20 GMT 50.925961 -0.070343 8,000 15 270 0
2020-01-14 20:57:14 GMT 50.918652 -0.075226 8,000 26 280 0
2020-01-14 20:57:11 GMT 50.918652 -0.075226 8,000 29 283 64
2020-01-14 20:57:08 GMT 50.915268 -0.078389 8,000 33 285 0
2020-01-14 20:57:05 GMT 50.911789 -0.082249 7,825 126 251 64
2020-01-14 20:57:02 GMT 50.908768 -0.086332 8,000 44 290 0
2020-01-14 20:56:59 GMT 50.905838 -0.091083 8,000 48 291 0
2020-01-14 20:56:56 GMT 50.903755 -0.095062 8,000 55 293 0
2020-01-14 20:56:53 GMT 50.899704 -0.104964 8,000 62 294 0
2020-01-14 20:56:50 GMT 50.897984 -0.110855 8,000 65 294 0
2020-01-14 20:56:44 GMT 50.896492 -0.117569 8,000 85 289 0
2020-01-14 20:56:41 GMT 50.895470 -0.124435 8,000 80 292 0
2020-01-14 20:56:38 GMT 50.894909 -0.130539 8,000 85 289 0
2020-01-14 20:56:34 GMT 50.894726 -0.137939 8,000 90 286 0
2020-01-14 20:56:31 GMT 50.895561 -0.150986 7,975 100 277 64
2020-01-14 20:56:28 GMT 50.896587 -0.157471 8,000 105 273 64
2020-01-14 20:56:25 GMT 50.898010 -0.163978 7,975 108 270 64
2020-01-14 20:56:22 GMT 50.898010 -0.163978 7,975 112 265 0
2020-01-14 20:56:16 GMT 50.901260 -0.174519 7,975 122 256 64
2020-01-14 20:56:13 GMT 50.902592 -0.177994 7,975 125 251 64
2020-01-14 20:56:10 GMT 50.904499 -0.182419 7,975 128 247 768
2020-01-14 20:56:07 GMT 50.906269 -0.186081 7,975 129 247 320
2020-01-14 20:56:04 GMT 50.909203 -0.191879 7,925 129 247 704
2020-01-14 20:56:01 GMT 50.911156 -0.195694 7,925 129 247 704
2020-01-14 20:55:58 GMT 50.914032 -0.201317 7,875 128 246 832
2020-01-14 20:55:55 GMT 50.915543 -0.204212 7,850 128 247 832
2020-01-14 20:55:52 GMT 50.917397 -0.207901 7,800 128 247 832
2020-01-14 20:55:49 GMT 50.919342 -0.211710 7,600 128 248 768
2020-01-14 20:55:46 GMT 50.921677 -0.216386 7,725 128 248 768
2020-01-14 20:55:43 GMT 50.923782 -0.220469 7,700 128 248 768
2020-01-14 20:55:40 GMT 50.926193 -0.225296 7,625 128 246 704
2020-01-14 20:55:36 GMT 50.928753 -0.230408 7,600 128 246 768
2020-01-14 20:55:33 GMT 50.931793 -0.236280 7,550 129 245 768
2020-01-14 20:55:30 GMT 50.933502 -0.239639 7,525 129 245 768
2020-01-14 20:55:27 GMT 50.935226 -0.242961 7,475 129 244 896
2020-01-14 20:55:24 GMT 50.937378 -0.247118 7,450 129 244 896
2020-01-14 20:55:21 GMT 50.939739 -0.251694 7,350 129 242 896
2020-01-14 20:55:18 GMT 50.941879 -0.255814 7,325 129 242 960
2020-01-14 20:55:15 GMT 50.943508 -0.258942 7,325 130 241 960
2020-01-14 20:55:12 GMT 50.946808 -0.264785 7,225 135 233 896
2020-01-14 20:55:09 GMT 50.950867 -0.270767 7,125 148 217 832
2020-01-14 20:55:06 GMT 50.950867 -0.270767 7,150 144 222 832
2020-01-14 20:55:03 GMT 50.953354 -0.273619 7,125 151 214 832
2020-01-14 20:54:59 GMT 50.956779 -0.276413 7,075 155 209 832
2020-01-14 20:54:56 GMT 50.959991 -0.278147 7,025 168 196 768
2020-01-14 20:54:53 GMT 50.962189 -0.278815 6,975 176 188 704
2020-01-14 20:54:50 GMT 50.964787 -0.279083 6,950 183 182 768
2020-01-14 20:54:47 GMT 50.967857 -0.278473 6,900 189 176 640
2020-01-14 20:54:43 GMT 50.970043 -0.277405 6,875 217 161 640
2020-01-14 20:54:40 GMT 50.972076 -0.275772 6,850 217 161 640
2020-01-14 20:54:37 GMT 50.973953 -0.273693 6,775 223 158 832
2020-01-14 20:54:34 GMT 50.975632 -0.271378 6,750 223 158 832
2020-01-14 20:54:31 GMT 50.977169 -0.269089 6,700 224 157 832
2020-01-14 20:54:28 GMT 50.978611 -0.266953 6,700 224 156 896
2020-01-14 20:54:25 GMT 50.980499 -0.264117 6,650 224 157 896
2020-01-14 20:54:22 GMT 50.981735 -0.262261 6,650 224 156 896
2020-01-14 20:54:19 GMT 50.983871 -0.259094 6,500 224 153 832
2020-01-14 20:54:15 GMT 50.986107 -0.255737 6,475 223 154 384
2020-01-14 20:54:12 GMT 50.987228 -0.254096 6,450 223 154 256
2020-01-14 20:54:08 GMT 50.989319 -0.251007 6,425 223 154 256
2020-01-14 20:54:05 GMT 50.992390 -0.246506 6,425 223 156 128
2020-01-14 20:54:02 GMT 50.994278 -0.243703 6,425 223 156 128
2020-01-14 20:53:59 GMT 50.994278 -0.243703 6,425 223 157 128
2020-01-14 20:53:56 GMT 50.995834 -0.241402 6,400 223 157 256
2020-01-14 20:53:52 GMT 50.997837 -0.238495 6,400 224 157 384
2020-01-14 20:53:49 GMT 51.000072 -0.235138 6,350 224 156 768
2020-01-14 20:53:46 GMT 51.001144 -0.233534 6,325 223 155 960
2020-01-14 20:53:43 GMT 51.004448 -0.228653 6,075 226 144 1088
2020-01-14 20:53:40 GMT 51.004448 -0.228653 6,225 223 153 960
2020-01-14 20:53:37 GMT 51.006077 -0.226288 6,175 223 152 960
2020-01-14 20:53:34 GMT 51.007565 -0.224075 6,125 224 152 960
2020-01-14 20:53:31 GMT 51.008789 -0.222325 6,075 224 150 1024
2020-01-14 20:53:28 GMT 51.010712 -0.219504 6,050 224 150 960
2020-01-14 20:53:25 GMT 51.012314 -0.217056 6,025 224 150 832
2020-01-14 20:53:22 GMT 51.015198 -0.212823 5,925 224 148 1024
2020-01-14 20:53:15 GMT 51.016876 -0.210266 5,800 224 147 1024
2020-01-14 20:53:12 GMT 51.018459 -0.207977 5,600 224 148 960
2020-01-14 20:53:09 GMT 51.020142 -0.205400 5,725 224 147 1024
2020-01-14 20:53:05 GMT 51.021858 -0.202866 5,625 223 148 1024
2020-01-14 20:53:02 GMT 51.024719 -0.198719 5,200 226 144 1088
2020-01-14 20:52:56 GMT 51.026413 -0.196121 5,500 225 145 1152
2020-01-14 20:52:53 GMT 51.028152 -0.193448 5,200 160 176 4480
2020-01-14 20:52:49 GMT 51.029865 -0.190735 5,375 225 145 1024
2020-01-14 20:52:46 GMT 51.031494 -0.188178 5,300 226 143 1088
2020-01-14 20:52:42 GMT 51.033077 -0.185699 5,250 224 145 768
2020-01-14 20:52:39 GMT 51.034752 -0.183182 5,200 218 150 256
2020-01-14 20:52:36 GMT 51.036800 -0.180664 5,200 213 153 64
2020-01-14 20:52:33 GMT 51.037964 -0.179596 5,200 205 158 0
2020-01-14 20:52:29 GMT 51.042938 -0.176969 5,050 173 167 2880
2020-01-14 20:52:26 GMT 51.042938 -0.176969 5,175 188 165 1280
2020-01-14 20:52:23 GMT 51.045414 -0.176620 4,900 176 167 2624
2020-01-14 20:52:20 GMT 51.048157 -0.177043 4,900 169 170 3520
2020-01-14 20:52:17 GMT 51.052185 -0.178676 4,550 161 176 4544
2020-01-14 20:52:14 GMT 51.052185 -0.178676 4,550 161 176 4544
2020-01-14 20:52:11 GMT 51.054165 -0.179825 4,350 160 177 4416
2020-01-14 20:52:08 GMT 51.056992 -0.181349 4,100 164 159 192
2020-01-14 20:52:04 GMT 51.062256 -0.184021 3,800 162 174 3136
2020-01-14 20:52:01 GMT 51.062256 -0.184021 3,650 164 174 0
2020-01-14 20:51:58 GMT 51.064407 -0.185209 3,650 162 175 1664
2020-01-14 20:51:55 GMT 51.066406 -0.186157 3,575 163 173 1024
2020-01-14 20:51:52 GMT 51.069946 -0.187912 3,500 162 174 512
2020-01-14 20:51:49 GMT 51.071201 -0.188522 3,450 164 174 0
2020-01-14 20:51:46 GMT 51.075485 -0.190582 3,450 164 176 256
2020-01-14 20:51:40 GMT 51.078976 -0.192108 3,450 165 175 256
2020-01-14 20:51:33 GMT 51.083725 -0.194117 3,450 164 177 -128
2020-01-14 20:51:30 GMT 51.086239 -0.195236 3,450 164 176 192
2020-01-14 20:51:27 GMT 51.088257 -0.196121 3,450 164 176 64
2020-01-14 20:51:23 GMT 51.093735 -0.198517 3,475 164 161 -128
2020-01-14 20:51:20 GMT 51.093735 -0.198517 3,475 161 154 192
2020-01-14 20:51:17 GMT 51.095783 -0.199509 3,450 161 154 128
2020-01-14 20:51:14 GMT 51.098156 -0.200729 3,450 160 154 192
2020-01-14 20:51:11 GMT 51.099747 -0.201614 3,450 158 157 64
2020-01-14 20:51:08 GMT 51.102402 -0.203173 3,450 159 156 -256
2020-01-14 20:51:05 GMT 51.104023 -0.204163 3,450 158 157 64
2020-01-14 20:51:01 GMT 51.109142 -0.207443 3,450 159 156 -64
2020-01-14 20:50:57 GMT 51.109142 -0.207443 3,450 158 157 0
2020-01-14 20:50:54 GMT 51.111923 -0.209111 3,450 158 157 0
2020-01-14 20:50:51 GMT 51.113571 -0.210151 3,450 159 158 -128
2020-01-14 20:50:48 GMT 51.115768 -0.211413 3,425 159 156 128
2020-01-14 20:50:45 GMT 51.120129 -0.214005 3,450 159 156 128
2020-01-14 20:50:41 GMT 51.120129 -0.214005 3,425 159 157 -64
2020-01-14 20:50:38 GMT 51.122635 -0.215495 3,425 159 159 192
2020-01-14 20:50:35 GMT 51.124283 -0.216460 3,425 160 161 128
2020-01-14 20:50:32 GMT 51.126160 -0.217574 3,400 161 162 128
2020-01-14 20:50:29 GMT 51.128742 -0.218964 3,400 161 162 128
2020-01-14 20:50:26 GMT 51.130791 -0.220032 3,375 172 153 832
2020-01-14 20:50:22 GMT 51.133675 -0.221329 3,350 170 155 640
2020-01-14 20:50:19 GMT 51.135818 -0.222028 3,350 172 153 832
2020-01-14 20:50:16 GMT 51.137924 -0.222250 3,300 182 140 1088
2020-01-14 20:50:13 GMT 51.139893 -0.222028 3,200 200 123 1472
2020-01-14 20:50:10 GMT 51.143082 -0.219650 3,075 234 113 2048
2020-01-14 20:50:04 GMT 51.144104 -0.218019 3,025 229 113 2176
2020-01-14 20:50:01 GMT 51.144756 -0.216293 2,875 247 115 2112
2020-01-14 20:49:58 GMT 51.145294 -0.213714 2,450 260 117 2880
2020-01-14 20:49:55 GMT 51.145596 -0.211487 2,600 258 116 2944
2020-01-14 20:49:52 GMT 51.145966 -0.208588 2,475 258 116 2944
2020-01-14 20:49:49 GMT 51.146301 -0.206068 2,300 258 116 3008
2020-01-14 20:49:45 GMT 51.146713 -0.203099 2,200 259 119 3200
2020-01-14 20:49:42 GMT 51.147038 -0.200043 1,950 259 119 2944
2020-01-14 20:49:39 GMT 51.147362 -0.197678 1,800 260 117 3328
2020-01-14 20:49:35 GMT 51.147690 -0.194626 1,600 260 115 3456
2020-01-14 20:49:31 GMT 51.148270 -0.190256 1,300 261 123 3328
2020-01-14 20:49:28 GMT 51.148434 -0.188828 1,200 261 123 3328
2020-01-14 20:49:25 GMT 51.148712 -0.186005 1,050 259 125 3264
2020-01-14 20:49:18 GMT 51.149643 -0.179443 800 258 122 1088
2020-01-14 20:49:15 GMT 51.150017 -0.176468 650 257 117 384
2020-01-14 20:49:08 GMT 51.150879 -0.170808 700 258 114 -1024
2020-01-14 20:49:05 GMT 51.151245 -0.168061 750 259 117 -512
2020-01-14 20:49:01 GMT 51.151924 -0.163040 775 258 116 -128
2020-01-14 20:48:58 GMT 51.152435 -0.159450 800 257 118 -704
2020-01-14 20:48:49 GMT 51.153507 -0.151443 925 259 113 -768
2020-01-14 20:48:45 GMT 51.153507 -0.151443 925 258 113 -576
2020-01-14 20:48:41 GMT 51.153881 -0.148544 950 258 115 -704
2020-01-14 20:48:38 GMT 51.154587 -0.143862 1,050 258 114 -960
2020-01-14 20:48:35 GMT 51.154724 -0.143045 1,050 260 113 -448
2020-01-14 20:48:31 GMT 51.155136 -0.139771 1,100 260 116 -320
2020-01-14 20:48:27 GMT 51.155548 -0.136438 1,125 258 117 -448
2020-01-14 20:48:21 GMT 51.156281 -0.131539 1,250 258 116 -896
2020-01-14 20:48:17 GMT 51.156952 -0.126801 1,275 260 111 -512
2020-01-14 20:48:10 GMT 51.157558 -0.121689 1,300 258 117 -320
2020-01-14 20:48:05 GMT 51.158112 -0.117955 1,325 257 117 -960
2020-01-14 20:47:59 GMT 51.158813 -0.113220 1,400 257 112 -512
2020-01-14 20:47:54 GMT 51.159622 -0.107488 2,350 256 117 -1088
2020-01-14 20:47:51 GMT 51.159744 -0.106735 1,500 258 112 -448
2020-01-14 20:47:45 GMT 51.160400 -0.102292 1,750 258 113 -768
2020-01-14 20:47:39 GMT 51.161133 -0.097021 1,650 259 114 -768
2020-01-14 20:47:33 GMT 51.162212 -0.088577 1,775 259 114 -832
2020-01-14 20:47:29 GMT 51.162212 -0.088577 1,725 257 114 -512
2020-01-14 20:47:24 GMT 51.162724 -0.084915 1,850 259 117 -512
2020-01-14 20:47:19 GMT 51.163376 -0.080032 1,850 259 117 -512
2020-01-14 20:47:14 GMT 51.163891 -0.076294 1,950 258 117 -832
2020-01-14 20:47:11 GMT 51.164566 -0.071188 2,000 258 116 -320
2020-01-14 20:47:03 GMT 51.165115 -0.067106 2,050 259 115 -320
2020-01-14 20:46:59 GMT 51.165611 -0.063400 2,050 258 115 -384
2020-01-14 20:46:53 GMT 51.166634 -0.055695 2,125 259 115 -640
2020-01-14 20:46:50 GMT 51.166634 -0.055695 2,125 259 117 -256
2020-01-14 20:46:46 GMT 51.167053 -0.052490 2,175 258 120 -640
2020-01-14 20:46:41 GMT 51.167816 -0.047583 2,300 258 113 -640
2020-01-14 20:46:38 GMT 51.168045 -0.046247 2,325 258 113 -640
2020-01-14 20:46:35 GMT 51.168404 -0.043640 2,350 258 113 -576
2020-01-14 20:46:32 GMT 51.168732 -0.041122 2,375 259 106 -192
2020-01-14 20:46:28 GMT 51.169567 -0.035172 2,475 258 111 0
2020-01-14 20:46:25 GMT 51.169567 -0.035172 2,375 260 112 -704
2020-01-14 20:46:22 GMT 51.169830 -0.033256 2,400 258 112 -1024
2020-01-14 20:46:19 GMT 51.170219 -0.030518 2,475 258 111 -448
2020-01-14 20:46:16 GMT 51.170547 -0.028152 2,475 259 113 -640
2020-01-14 20:46:13 GMT 51.170792 -0.025833 2,500 258 111 -448
2020-01-14 20:46:10 GMT 51.171158 -0.023309 2,725 258 111 -448
2020-01-14 20:46:07 GMT 51.171429 -0.021362 2,575 259 111 -576
2020-01-14 20:46:04 GMT 51.171757 -0.018692 2,600 260 111 -448
2020-01-14 20:46:00 GMT 51.172165 -0.015292 2,625 258 111 -448
2020-01-14 20:45:57 GMT 51.172455 -0.013351 2,650 257 112 -640
2020-01-14 20:45:54 GMT 51.172779 -0.011139 2,775 257 108 -768
2020-01-14 20:45:51 GMT 51.173199 -0.008392 2,800 257 108 -768
2020-01-14 20:45:48 GMT 51.173573 -0.005569 2,775 259 102 -384
2020-01-14 20:45:45 GMT 51.173805 -0.003738 2,800 258 105 -384
2020-01-14 20:45:40 GMT 51.174595 0.002136 2,875 258 109 -832
2020-01-14 20:45:34 GMT 51.175343 0.007248 2,950 258 109 -960
2020-01-14 20:45:31 GMT 51.175873 0.011283 2,975 258 110 -512
2020-01-14 20:45:27 GMT 51.175873 0.011283 3,000 258 110 -512
2020-01-14 20:45:24 GMT 51.176411 0.015182 3,100 259 112 -448
2020-01-14 20:45:21 GMT 51.176411 0.015182 3,050 258 111 -576
2020-01-14 20:45:18 GMT 51.176876 0.018234 3,075 258 112 -448
2020-01-14 20:45:15 GMT 51.177200 0.020933 3,125 259 113 -576
2020-01-14 20:45:12 GMT 51.177429 0.022863 3,450 259 113 -448
2020-01-14 20:45:09 GMT 51.178070 0.027169 3,200 256 111 -576
2020-01-14 20:45:06 GMT 51.178413 0.029526 3,225 257 109 -768
2020-01-14 20:44:59 GMT 51.178879 0.032806 3,275 259 109 -640
2020-01-14 20:44:56 GMT 51.179169 0.034963 3,300 258 109 -448
2020-01-14 20:44:53 GMT 51.179855 0.039978 3,350 258 112 -320
2020-01-14 20:44:47 GMT 51.180542 0.045059 3,375 260 116 -512
2020-01-14 20:44:41 GMT 51.180786 0.047226 3,425 260 116 -448
2020-01-14 20:44:38 GMT 51.181091 0.049735 3,425 260 118 -320
2020-01-14 20:44:35 GMT 51.181393 0.052109 3,425 259 120 -128
2020-01-14 20:44:31 GMT 51.181961 0.056416 3,450 259 125 -64
2020-01-14 20:44:27 GMT 51.182419 0.059979 3,450 258 126 0
2020-01-14 20:44:24 GMT 51.182743 0.062332 3,450 258 126 -64
2020-01-14 20:44:21 GMT 51.183113 0.064774 3,450 258 126 -64
2020-01-14 20:44:18 GMT 51.183533 0.067825 3,450 258 126 0
2020-01-14 20:44:15 GMT 51.184387 0.074083 3,450 258 126 -64
2020-01-14 20:44:09 GMT 51.184753 0.076756 3,450 258 129 -128
2020-01-14 20:44:06 GMT 51.185165 0.079874 3,450 258 129 0
2020-01-14 20:44:03 GMT 51.185394 0.081210 3,450 258 129 0
2020-01-14 20:43:59 GMT 51.186047 0.085907 3,450 258 127 64
2020-01-14 20:43:56 GMT 51.186375 0.088120 3,450 259 126 -192
2020-01-14 20:43:52 GMT 51.186813 0.091454 3,450 258 129 0
2020-01-14 20:43:49 GMT 51.187180 0.094349 3,450 258 129 0
2020-01-14 20:43:46 GMT 51.187729 0.098135 3,450 258 129 128
2020-01-14 20:43:43 GMT 51.187958 0.099916 3,450 258 129 0
2020-01-14 20:43:40 GMT 51.188282 0.102386 3,450 259 130 -64
2020-01-14 20:43:37 GMT 51.188736 0.105781 3,450 259 131 64
2020-01-14 20:43:34 GMT 51.189056 0.108527 3,450 259 131 64
2020-01-14 20:43:31 GMT 51.189514 0.111793 3,450 258 131 64
2020-01-14 20:43:28 GMT 51.189880 0.114391 3,450 259 130 128
2020-01-14 20:43:25 GMT 51.190235 0.117188 3,450 260 122 -320
2020-01-14 20:43:22 GMT 51.190983 0.122604 3,450 259 130 -128
2020-01-14 20:43:19 GMT 51.191345 0.125452 3,450 259 130 -128
2020-01-14 20:43:16 GMT 51.191345 0.125452 3,450 258 129 -64
2020-01-14 20:43:13 GMT 51.191757 0.128347 3,450 258 125 320
2020-01-14 20:43:09 GMT 51.192333 0.132599 3,450 258 125 320
2020-01-14 20:43:03 GMT 51.192936 0.137024 3,450 258 124 0
2020-01-14 20:43:00 GMT 51.193356 0.140228 3,450 259 128 64
2020-01-14 20:42:57 GMT 51.193771 0.143490 3,450 258 128 0
2020-01-14 20:42:54 GMT 51.194149 0.146179 3,450 258 129 -192
2020-01-14 20:42:50 GMT 51.194569 0.149384 3,475 258 131 0
2020-01-14 20:42:47 GMT 51.194962 0.152175 3,475 257 131 -320
2020-01-14 20:42:44 GMT 51.195312 0.154419 3,500 258 131 -192
2020-01-14 20:42:41 GMT 51.195778 0.158081 3,500 258 131 -256
2020-01-14 20:42:38 GMT 51.196106 0.160489 3,525 259 128 -320
2020-01-14 20:42:35 GMT 51.196476 0.163269 3,525 259 128 -192
2020-01-14 20:42:32 GMT 51.196850 0.166016 3,525 259 127 -256
2020-01-14 20:42:29 GMT 51.197159 0.168507 3,550 258 126 -384
2020-01-14 20:42:26 GMT 51.197891 0.173851 3,600 257 127 -320
2020-01-14 20:42:20 GMT 51.198395 0.177192 3,625 257 125 -128
2020-01-14 20:42:16 GMT 51.198990 0.181274 3,650 259 125 -384
2020-01-14 20:42:13 GMT 51.199268 0.183487 3,650 259 125 -320
2020-01-14 20:42:10 GMT 51.199593 0.185776 3,675 259 125 -384
2020-01-14 20:42:07 GMT 51.200294 0.191345 3,700 259 123 -384
2020-01-14 20:42:01 GMT 51.201004 0.196937 3,725 260 122 -320
2020-01-14 20:41:55 GMT 51.201408 0.200119 3,750 260 121 -256
2020-01-14 20:41:52 GMT 51.201969 0.204849 3,775 259 120 -384
2020-01-14 20:41:46 GMT 51.202515 0.210522 3,800 262 120 -256
2020-01-14 20:41:43 GMT 51.202515 0.210522 3,800 263 122 -256
2020-01-14 20:41:35 GMT 51.202991 0.217285 3,850 266 125 -384
2020-01-14 20:41:32 GMT 51.203201 0.222547 3,875 268 127 -320
2020-01-14 20:41:29 GMT 51.203201 0.222547 3,875 268 128 -320
2020-01-14 20:41:26 GMT 51.203320 0.225754 3,900 269 129 -320
2020-01-14 20:41:23 GMT 51.203365 0.228119 3,925 270 130 -256
2020-01-14 20:41:20 GMT 51.203411 0.231247 4,000 271 132 -192
2020-01-14 20:41:15 GMT 51.203274 0.236511 3,950 276 134 -192
2020-01-14 20:41:12 GMT 51.203133 0.239029 3,975 279 136 -256
2020-01-14 20:41:04 GMT 51.201969 0.248489 4,000 286 142 -448
2020-01-14 20:41:00 GMT 51.201462 0.251052 4,025 294 151 -320
2020-01-14 20:40:54 GMT 51.199631 0.257362 4,050 300 157 -256
2020-01-14 20:40:51 GMT 51.198669 0.260035 4,075 302 158 -64
2020-01-14 20:40:48 GMT 51.197708 0.262558 4,075 302 157 -128
2020-01-14 20:40:44 GMT 51.195915 0.267334 4,100 302 156 -384
2020-01-14 20:40:41 GMT 51.194962 0.269685 4,125 302 155 -384
2020-01-14 20:40:38 GMT 51.193775 0.272751 4,125 302 155 -448
2020-01-14 20:40:34 GMT 51.192078 0.277182 4,175 302 156 -448
2020-01-14 20:40:31 GMT 51.189957 0.282822 4,200 302 157 -320
2020-01-14 20:40:28 GMT 51.189957 0.282822 4,250 305 163 -384
2020-01-14 20:40:23 GMT 51.187408 0.288985 4,250 306 164 -320
2020-01-14 20:40:20 GMT 51.186466 0.290985 4,275 311 171 -576
2020-01-14 20:40:17 GMT 51.184799 0.294255 4,300 315 177 -576
2020-01-14 20:40:14 GMT 51.183060 0.296928 4,500 332 202 -960
2020-01-14 20:40:10 GMT 51.180908 0.299526 4,450 332 202 -960
2020-01-14 20:40:07 GMT 51.178207 0.301901 4,400 339 214 -896
2020-01-14 20:40:04 GMT 51.175667 0.303497 4,475 343 221 -960
2020-01-14 20:40:01 GMT 51.172440 0.304945 4,525 347 227 -1024
2020-01-14 20:39:58 GMT 51.168091 0.306058 4,575 354 238 -896
2020-01-14 20:39:55 GMT 51.165527 0.306429 4,600 356 241 -640
2020-01-14 20:39:52 GMT 51.158348 0.306854 4,650 359 250 -448
2020-01-14 20:39:49 GMT 51.158348 0.306854 4,650 0 252 -512
2020-01-14 20:39:42 GMT 51.151611 0.306504 4,700 5 262 -640
2020-01-14 20:39:39 GMT 51.147175 0.305481 4,750 10 270 -768
2020-01-14 20:39:36 GMT 51.144104 0.304337 4,850 22 286 -1024
2020-01-14 20:39:32 GMT 51.138332 0.300980 4,850 24 288 -1024
2020-01-14 20:39:29 GMT 51.134003 0.297546 4,900 27 291 -1024
2020-01-14 20:39:26 GMT 51.131790 0.295443 4,950 34 297 -1216
2020-01-14 20:39:23 GMT 51.127441 0.290395 5,025 37 300 -1344
2020-01-14 20:39:20 GMT 51.121853 0.282669 5,125 43 304 -960
2020-01-14 20:39:14 GMT 51.116180 0.274213 5,200 43 304 -1088
2020-01-14 20:39:11 GMT 51.112728 0.269012 5,275 43 304 -1344
2020-01-14 20:39:08 GMT 51.108723 0.262985 5,375 43 308 -2112
2020-01-14 20:39:05 GMT 51.108723 0.262985 5,400 43 303 -1728
2020-01-14 20:39:02 GMT 51.105793 0.258560 5,475 43 302 -1792
2020-01-14 20:38:58 GMT 51.102486 0.253525 5,575 43 300 -1920
2020-01-14 20:38:55 GMT 51.099182 0.248489 5,750 43 301 -1664
2020-01-14 20:38:52 GMT 51.095875 0.243454 5,825 43 299 -1600
2020-01-14 20:38:46 GMT 51.090427 0.235291 6,000 43 301 -1664
2020-01-14 20:38:43 GMT 51.087730 0.231247 6,025 43 301 -1600
2020-01-14 20:38:40 GMT 51.083267 0.224477 6,100 43 302 -1472
2020-01-14 20:38:36 GMT 51.080109 0.219727 6,225 43 304 -1408
2020-01-14 20:38:33 GMT 51.072926 0.208969 6,300 43 305 -1472
2020-01-14 20:38:30 GMT 51.072926 0.208969 6,400 43 307 -1600
2020-01-14 20:38:27 GMT 51.070999 0.205994 6,475 43 307 -1664
2020-01-14 20:38:24 GMT 51.067665 0.201035 6,575 43 308 -2112
2020-01-14 20:38:21 GMT 51.064270 0.195898 6,675 43 308 -2112
2020-01-14 20:38:18 GMT 51.061707 0.191956 6,725 43 308 -2112
2020-01-14 20:38:14 GMT 51.057037 0.184912 6,975 43 309 -2176
2020-01-14 20:38:11 GMT 51.051270 0.176152 7,075 43 308 -2176
2020-01-14 20:38:08 GMT 51.049026 0.172664 7,150 44 307 -2112
2020-01-14 20:38:02 GMT 51.044769 0.166057 7,325 44 307 -1984
2020-01-14 20:37:59 GMT 51.042023 0.161826 7,400 44 307 -1920
2020-01-14 20:37:56 GMT 51.039173 0.157394 7,500 44 306 -1792
2020-01-14 20:37:53 GMT 51.035934 0.152398 7,600 44 305 -1728
2020-01-14 20:37:50 GMT 51.032913 0.147722 7,650 44 305 -1664
2020-01-14 20:37:47 GMT 51.029892 0.142971 7,775 44 304 -1600
2020-01-14 20:37:44 GMT 51.023533 0.133133 7,875 44 304 -1536
2020-01-14 20:37:41 GMT 51.023533 0.133133 7,925 44 304 -1472
2020-01-14 20:37:38 GMT 51.017899 0.124413 8,300 44 305 -1344
2020-01-14 20:37:35 GMT 51.017899 0.124413 8,075 44 305 -1344
2020-01-14 20:37:32 GMT 51.014641 0.119400 8,100 44 305 -1280
2020-01-14 20:37:29 GMT 51.011707 0.114899 8,200 44 306 -1152
2020-01-14 20:37:26 GMT 51.005905 0.106003 8,250 43 306 -1152
2020-01-14 20:37:20 GMT 50.999840 0.096817 8,375 43 307 -1216
2020-01-14 20:37:17 GMT 50.999840 0.096817 8,975 42 309 0
2020-01-14 20:37:14 GMT 50.996254 0.091324 8,550 43 306 -1216
2020-01-14 20:37:11 GMT 50.993694 0.087433 8,700 43 306 -1216
2020-01-14 20:37:08 GMT 50.989197 0.080616 8,600 43 306 -1280
2020-01-14 20:37:05 GMT 50.986294 0.076294 8,675 43 305 -1216
2020-01-14 20:37:02 GMT 50.983200 0.071634 8,725 43 306 -1216
2020-01-14 20:36:59 GMT 50.976749 0.061874 8,900 43 305 -1216
2020-01-14 20:36:56 GMT 50.976749 0.061874 8,850 43 305 -1088
2020-01-14 20:36:53 GMT 50.975307 0.059738 8,875 43 306 -448
2020-01-14 20:36:50 GMT 50.971115 0.053447 8,925 43 305 -832
2020-01-14 20:36:46 GMT 50.963806 0.042572 9,000 43 306 -320
2020-01-14 20:36:43 GMT 50.963806 0.042572 9,000 43 307 -128
2020-01-14 20:36:39 GMT 50.959572 0.036240 9,000 43 307 64
2020-01-14 20:36:35 GMT 50.956238 0.031326 9,000 42 308 0
2020-01-14 20:36:31 GMT 50.952263 0.025482 9,000 43 307 0
2020-01-14 20:36:28 GMT 50.949238 0.021057 9,000 42 308 0
2020-01-14 20:36:25 GMT 50.944977 0.014698 9,000 43 310 0
2020-01-14 20:36:22 GMT 50.942688 0.011357 9,000 42 308 0
2020-01-14 20:36:19 GMT 50.939739 0.007019 9,000 42 309 0
2020-01-14 20:36:16 GMT 50.936188 0.001782 9,000 42 309 0
2020-01-14 20:36:13 GMT 50.932938 -0.002969 9,000 43 310 0
2020-01-14 20:36:10 GMT 50.930099 -0.007126 9,000 42 309 0
2020-01-14 20:36:07 GMT 50.926666 -0.012248 9,000 43 310 0
2020-01-14 20:36:04 GMT 50.924564 -0.015335 9,000 43 310 0
2020-01-14 20:36:01 GMT 50.921307 -0.020142 9,000 43 311 0
2020-01-14 20:35:58 GMT 50.917210 -0.026245 9,000 43 311 0
2020-01-14 20:35:55 GMT 50.914833 -0.029831 9,000 80 317 -768
2020-01-14 20:35:52 GMT 50.911285 -0.035260 9,000 45 313 64
2020-01-14 20:35:49 GMT 50.907200 -0.041733 9,000 47 314 64
2020-01-14 20:35:46 GMT 50.902496 -0.049820 9,000 49 315 64
2020-01-14 20:35:43 GMT 50.902496 -0.049820 9,550 68 315 -64
2020-01-14 20:35:40 GMT 50.899155 -0.056194 9,000 54 316 64
2020-01-14 20:35:37 GMT 50.896637 -0.061613 9,000 58 317 0
2020-01-14 20:35:34 GMT 50.894348 -0.067254 9,000 60 316 0
2020-01-14 20:35:31 GMT 50.892536 -0.072556 9,000 68 315 -64
2020-01-14 20:35:28 GMT 50.890163 -0.080795 9,000 69 316 -128
2020-01-14 20:35:25 GMT 50.888763 -0.087051 9,000 70 315 -128
2020-01-14 20:35:22 GMT 50.887928 -0.091476 9,025 78 310 -256
2020-01-14 20:35:19 GMT 50.886887 -0.098580 9,025 77 311 -256
2020-01-14 20:35:16 GMT 50.886108 -0.105038 9,050 79 309 -256
2020-01-14 20:35:13 GMT 50.885101 -0.114020 9,050 79 309 -384
2020-01-14 20:35:10 GMT 50.884529 -0.119095 9,075 79 309 -512
2020-01-14 20:35:07 GMT 50.882996 -0.132652 9,150 79 309 -1024
2020-01-14 20:35:01 GMT 50.882156 -0.140457 9,300 79 310 -960
2020-01-14 20:34:58 GMT 50.881596 -0.145187 9,325 79 310 -960
2020-01-14 20:34:55 GMT 50.879967 -0.159988 9,375 80 311 -960
2020-01-14 20:34:52 GMT 50.879967 -0.159988 9,375 80 312 -896
2020-01-14 20:34:49 GMT 50.879456 -0.164719 9,400 80 313 -832
2020-01-14 20:34:46 GMT 50.878571 -0.172577 9,475 79 314 -768
2020-01-14 20:34:43 GMT 50.877869 -0.178899 9,500 80 316 -768
2020-01-14 20:34:40 GMT 50.877079 -0.186234 9,525 80 316 -768
2020-01-14 20:34:37 GMT 50.876057 -0.195160 9,575 80 318 -768
2020-01-14 20:34:34 GMT 50.875397 -0.201094 9,600 79 321 -640
2020-01-14 20:34:31 GMT 50.874752 -0.206909 9,650 79 321 -640
2020-01-14 20:34:28 GMT 50.873962 -0.214081 9,675 80 323 -640
2020-01-14 20:34:22 GMT 50.872284 -0.229034 9,750 79 330 -832
2020-01-14 20:34:18 GMT 50.871048 -0.239621 9,775 79 328 -832
2020-01-14 20:34:15 GMT 50.870422 -0.245285 9,825 79 339 -896
2020-01-14 20:34:12 GMT 50.869537 -0.252908 9,875 79 331 -832
2020-01-14 20:34:09 GMT 50.868980 -0.257950 9,900 79 332 -896
2020-01-14 20:34:06 GMT 50.868027 -0.266047 9,950 79 334 -896
2020-01-14 20:34:03 GMT 50.867111 -0.274213 10,000 79 336 -832
2020-01-14 20:33:59 GMT 50.865162 -0.291367 10,075 79 337 -896
2020-01-14 20:33:56 GMT 50.865162 -0.291367 10,100 79 338 -896
2020-01-14 20:33:52 GMT 50.864185 -0.299911 10,175 79 342 -896
2020-01-14 20:33:49 GMT 50.863487 -0.306015 10,225 79 341 -896
2020-01-14 20:33:46 GMT 50.861755 -0.321053 10,350 79 345 -960
2020-01-14 20:33:40 GMT 50.860657 -0.330703 10,550 79 346 -960
2020-01-14 20:33:37 GMT 50.859970 -0.336939 10,425 79 347 -896
2020-01-14 20:33:34 GMT 50.859158 -0.343933 10,450 79 348 -960
2020-01-14 20:33:31 GMT 50.857956 -0.354458 10,500 79 349 -1024
2020-01-14 20:33:28 GMT 50.857388 -0.359268 10,625 79 351 -1024
2020-01-14 20:33:25 GMT 50.856552 -0.366516 10,600 79 350 -1088
2020-01-14 20:33:22 GMT 50.855667 -0.374298 10,650 79 350 -1088
2020-01-14 20:33:19 GMT 50.854828 -0.381622 10,675 79 351 -1024
2020-01-14 20:33:16 GMT 50.852825 -0.398788 10,775 79 351 -1024
2020-01-14 20:33:13 GMT 50.852825 -0.398788 10,825 79 351 -832
2020-01-14 20:33:09 GMT 50.851849 -0.407181 10,875 79 351 -960
2020-01-14 20:33:06 GMT 50.850998 -0.414734 10,925 79 351 -896
2020-01-14 20:33:03 GMT 50.850082 -0.422528 10,975 79 351 -896
2020-01-14 20:33:00 GMT 50.849102 -0.431137 11,025 79 351 -832
2020-01-14 20:32:57 GMT 50.848389 -0.437226 11,050 79 351 -832
2020-01-14 20:32:54 GMT 50.847565 -0.444501 11,125 79 351 -832
2020-01-14 20:32:51 GMT 50.846684 -0.452118 11,175 79 352 -896
2020-01-14 20:32:48 GMT 50.844681 -0.469589 11,225 79 352 -896
2020-01-14 20:32:45 GMT 50.843609 -0.478973 11,250 79 352 -960
2020-01-14 20:32:41 GMT 50.843609 -0.478973 11,300 79 353 -960
2020-01-14 20:32:38 GMT 50.842529 -0.488595 11,350 79 354 -1024
2020-01-14 20:32:34 GMT 50.840397 -0.507202 11,450 79 356 -1024
2020-01-14 20:32:31 GMT 50.839977 -0.511093 11,500 79 355 -960
2020-01-14 20:32:25 GMT 50.838821 -0.521331 11,525 79 356 -1024
2020-01-14 20:32:21 GMT 50.837952 -0.528754 11,650 79 356 -960
2020-01-14 20:32:18 GMT 50.836716 -0.539221 11,675 79 356 -896
2020-01-14 20:32:15 GMT 50.835983 -0.545679 11,725 79 356 -896
2020-01-14 20:32:12 GMT 50.835342 -0.551024 11,750 79 359 -960
2020-01-14 20:32:09 GMT 50.834244 -0.560525 11,775 79 356 -832
2020-01-14 20:32:06 GMT 50.832531 -0.575180 11,925 79 358 -896
2020-01-14 20:32:03 GMT 50.831226 -0.586166 11,900 79 358 -896
2020-01-14 20:32:00 GMT 50.831226 -0.586166 11,950 79 359 -960
2020-01-14 20:31:57 GMT 50.829666 -0.599349 12,000 79 359 -960
2020-01-14 20:31:54 GMT 50.829666 -0.599349 12,025 79 360 -1024
2020-01-14 20:31:51 GMT 50.828571 -0.608597 12,100 79 362 -1024
2020-01-14 20:31:48 GMT 50.827972 -0.613527 12,150 79 362 -1088
2020-01-14 20:31:45 GMT 50.826965 -0.622138 12,150 79 363 -1088
2020-01-14 20:31:42 GMT 50.825966 -0.630417 12,200 79 363 -1152
2020-01-14 20:31:38 GMT 50.824722 -0.640919 12,325 79 365 -1280
2020-01-14 20:31:35 GMT 50.823944 -0.647451 12,400 79 365 -1344
2020-01-14 20:31:32 GMT 50.822987 -0.655823 12,500 79 366 -1088
2020-01-14 20:31:29 GMT 50.822147 -0.662918 12,575 79 366 -1088
2020-01-14 20:31:26 GMT 50.821312 -0.670013 12,625 79 371 -512
2020-01-14 20:31:23 GMT 50.820194 -0.679779 12,600 79 368 -768
2020-01-14 20:31:20 GMT 50.819046 -0.689392 12,625 79 371 -576
2020-01-14 20:31:17 GMT 50.818287 -0.695801 12,650 62 393 -960
2020-01-14 20:31:14 GMT 50.816330 -0.711441 12,700 77 379 -512
2020-01-14 20:31:08 GMT 50.814655 -0.722046 12,750 73 385 -768
2020-01-14 20:31:05 GMT 50.813210 -0.729294 12,800 67 389 -832
2020-01-14 20:31:02 GMT 50.811630 -0.735639 12,825 65 391 -896
2020-01-14 20:30:59 GMT 50.809250 -0.743656 12,875 62 393 -960
2020-01-14 20:30:56 GMT 50.802887 -0.760135 13,100 52 399 -1024
2020-01-14 20:30:53 GMT 50.802887 -0.760135 13,100 52 399 -1024
2020-01-14 20:30:50 GMT 50.799683 -0.766890 13,025 51 399 -1024
2020-01-14 20:30:47 GMT 50.797211 -0.771641 13,100 48 401 -1088
2020-01-14 20:30:44 GMT 50.793518 -0.778122 13,150 42 403 -896
2020-01-14 20:30:41 GMT 50.789566 -0.784409 13,175 42 403 -960
2020-01-14 20:30:38 GMT 50.785419 -0.790329 13,225 41 404 -832
2020-01-14 20:30:35 GMT 50.780483 -0.797119 13,250 40 412 -1088
2020-01-14 20:30:32 GMT 50.776901 -0.801926 13,275 40 409 -896
2020-01-14 20:30:29 GMT 50.773132 -0.806975 13,350 40 412 -1024
2020-01-14 20:30:26 GMT 50.764160 -0.819150 13,475 40 414 -1344
2020-01-14 20:30:20 GMT 50.759079 -0.826053 13,550 40 416 -1600
2020-01-14 20:30:17 GMT 50.754822 -0.831769 13,700 40 418 -1984
2020-01-14 20:30:14 GMT 50.749420 -0.839192 13,750 40 419 -1984
2020-01-14 20:30:10 GMT 50.743988 -0.846481 13,975 40 422 -1920
2020-01-14 20:30:07 GMT 50.736008 -0.857231 14,300 40 422 -1920
2020-01-14 20:30:04 GMT 50.731419 -0.863419 15,125 40 422 -1920
2020-01-14 20:30:01 GMT 50.731419 -0.863419 14,225 40 422 -1984
2020-01-14 20:29:58 GMT 50.725754 -0.870889 14,275 40 422 -1920
2020-01-14 20:29:55 GMT 50.721405 -0.876679 14,450 40 423 -1920
2020-01-14 20:29:52 GMT 50.717834 -0.881430 14,450 40 423 -1856
2020-01-14 20:29:49 GMT 50.713211 -0.887666 14,525 40 423 -1856
2020-01-14 20:29:46 GMT 50.708588 -0.893827 14,675 40 424 -1856
2020-01-14 20:29:43 GMT 50.704697 -0.899023 14,700 40 424 -1920
2020-01-14 20:29:40 GMT 50.699799 -0.905630 14,875 40 424 -1920
2020-01-14 20:29:37 GMT 50.694130 -0.913239 14,925 40 424 -1920
2020-01-14 20:29:34 GMT 50.691429 -0.916901 14,975 40 424 -1920
2020-01-14 20:29:31 GMT 50.685928 -0.924336 15,100 40 425 -1984
2020-01-14 20:29:28 GMT 50.682632 -0.928716 15,300 40 425 -1984
2020-01-14 20:29:25 GMT 50.678009 -0.934951 15,300 40 424 -1984
2020-01-14 20:29:22 GMT 50.672066 -0.942993 15,450 40 424 -2048
2020-01-14 20:29:19 GMT 50.667736 -0.948833 15,575 40 424 -2048
2020-01-14 20:29:16 GMT 50.664616 -0.953064 15,625 40 424 -1984
2020-01-14 20:29:13 GMT 50.659401 -0.960042 15,775 40 424 -1984
2020-01-14 20:29:10 GMT 50.651768 -0.970212 15,900 40 424 -1984
2020-01-14 20:29:04 GMT 50.645370 -0.978795 16,025 40 422 -1984
2020-01-14 20:29:01 GMT 50.642223 -0.982979 16,100 40 422 -1920
2020-01-14 20:28:58 GMT 50.636452 -0.990774 16,225 40 423 -1856
2020-01-14 20:28:55 GMT 50.633286 -0.995005 16,275 40 423 -1856
2020-01-14 20:28:52 GMT 50.628677 -1.001166 16,500 40 423 -1856
2020-01-14 20:28:49 GMT 50.617924 -1.015419 16,575 40 423 -1856
2020-01-14 20:28:46 GMT 50.617924 -1.015419 16,600 40 424 -1856
2020-01-14 20:28:43 GMT 50.608940 -1.027370 16,775 40 423 -1920
2020-01-14 20:28:40 GMT 50.608940 -1.027370 16,800 40 424 -1856
2020-01-14 20:28:36 GMT 50.603897 -1.034160 16,900 40 423 -1920
2020-01-14 20:28:33 GMT 50.599396 -1.040138 17,175 40 423 -1920
2020-01-14 20:28:30 GMT 50.589111 -1.053892 17,175 40 423 -1920
2020-01-14 20:28:24 GMT 50.586731 -1.057073 17,250 40 424 -1920
2020-01-14 20:28:21 GMT 50.581661 -1.063818 17,400 40 424 -1728
2020-01-14 20:28:18 GMT 50.576111 -1.071239 17,475 40 424 -1664
2020-01-14 20:28:15 GMT 50.573135 -1.075215 17,575 40 423 -1408
2020-01-14 20:28:12 GMT 50.568512 -1.081358 17,650 40 423 -1216
2020-01-14 20:28:09 GMT 50.564018 -1.087350 17,650 40 423 -1152
2020-01-14 20:28:06 GMT 50.559540 -1.093284 17,725 40 423 -1088
2020-01-14 20:28:03 GMT 50.555683 -1.098484 17,750 40 423 -960
2020-01-14 20:28:00 GMT 50.551353 -1.104274 17,875 40 422 -1024
2020-01-14 20:27:57 GMT 50.546722 -1.110414 17,850 40 423 -960
2020-01-14 20:27:54 GMT 50.540451 -1.118726 17,875 40 422 -960
2020-01-14 20:27:51 GMT 50.536835 -1.123497 17,975 40 422 -960
2020-01-14 20:27:47 GMT 50.530884 -1.131375 18,050 40 422 -960
2020-01-14 20:27:44 GMT 50.525517 -1.138495 18,100 40 422 -960
2020-01-14 20:27:38 GMT 50.517014 -1.149734 18,150 40 421 -960
2020-01-14 20:27:35 GMT 50.508389 -1.161210 18,250 40 420 -960
2020-01-14 20:27:32 GMT 50.508389 -1.161210 18,275 40 421 -960
2020-01-14 20:27:29 GMT 50.504242 -1.166719 18,350 40 421 -960
2020-01-14 20:27:26 GMT 50.499451 -1.173013 18,375 40 421 -960
2020-01-14 20:27:23 GMT 50.495724 -1.177913 18,425 40 421 -960
2020-01-14 20:27:20 GMT 50.491287 -1.183777 18,475 40 420 -960
2020-01-14 20:27:17 GMT 50.485794 -1.191077 18,550 40 420 -960
2020-01-14 20:27:14 GMT 50.481621 -1.196545 18,550 40 420 -960
2020-01-14 20:27:11 GMT 50.474533 -1.205966 18,625 40 420 -1024
2020-01-14 20:27:05 GMT 50.469051 -1.213247 18,700 40 420 -1024
2020-01-14 20:27:02 GMT 50.464600 -1.219121 18,950 40 421 -320
2020-01-14 20:26:59 GMT 50.459106 -1.226421 18,825 40 421 -1024
2020-01-14 20:26:56 GMT 50.455353 -1.231336 18,875 40 421 -960
2020-01-14 20:26:53 GMT 50.450336 -1.238040 18,900 40 421 -832
2020-01-14 20:26:50 GMT 50.446884 -1.242539 18,975 40 421 -384
2020-01-14 20:26:46 GMT 50.440063 -1.251574 18,975 40 421 -384
2020-01-14 20:26:43 GMT 50.435623 -1.257489 19,000 40 421 -64
2020-01-14 20:26:40 GMT 50.430412 -1.264393 19,000 40 421 0
2020-01-14 20:26:37 GMT 50.427017 -1.268921 19,000 40 421 0
2020-01-14 20:26:34 GMT 50.422543 -1.274785 19,000 40 420 0
2020-01-14 20:26:31 GMT 50.418217 -1.280501 19,000 40 421 0
2020-01-14 20:26:28 GMT 50.414536 -1.285400 19,000 40 421 0
2020-01-14 20:26:25 GMT 50.409164 -1.292484 19,000 40 421 0
2020-01-14 20:26:22 GMT 50.398617 -1.306408 19,000 40 421 0
2020-01-14 20:26:19 GMT 50.398617 -1.306408 19,000 40 421 0
2020-01-14 20:26:16 GMT 50.396530 -1.309180 19,000 40 421 0
2020-01-14 20:26:13 GMT 50.391216 -1.316281 19,000 40 420 0
2020-01-14 20:26:10 GMT 50.380966 -1.329779 19,000 40 420 0
2020-01-14 20:26:07 GMT 50.380966 -1.329779 19,000 40 420 0
2020-01-14 20:26:04 GMT 50.377064 -1.334839 19,000 40 420 0
2020-01-14 20:26:01 GMT 50.374271 -1.338625 19,000 40 420 0
2020-01-14 20:25:58 GMT 50.369476 -1.344860 19,000 40 420 0
2020-01-14 20:25:55 GMT 50.365192 -1.350576 19,000 40 420 0
2020-01-14 20:25:52 GMT 50.360733 -1.356450 19,000 40 420 0
2020-01-14 20:25:49 GMT 50.356110 -1.362522 19,000 40 420 0
2020-01-14 20:25:46 GMT 50.351364 -1.368763 19,000 40 420 0
2020-01-14 20:25:43 GMT 50.347363 -1.374033 19,000 40 420 0
2020-01-14 20:25:40 GMT 50.337250 -1.387313 19,000 40 420 0
2020-01-14 20:25:37 GMT 50.337250 -1.387313 19,000 40 420 0
2020-01-14 20:25:34 GMT 50.328781 -1.398516 19,000 40 420 0
2020-01-14 20:25:31 GMT 50.328781 -1.398516 19,000 40 419 0
2020-01-14 20:25:28 GMT 50.324924 -1.403578 19,000 40 420 0
2020-01-14 20:25:25 GMT 50.318825 -1.411595 19,000 40 420 -64
2020-01-14 20:25:22 GMT 50.316422 -1.414707 19,000 40 420 0
2020-01-14 20:25:19 GMT 50.311523 -1.421212 19,000 39 420 -64
2020-01-14 20:25:16 GMT 50.307652 -1.426293 19,000 39 420 0
2020-01-14 20:25:13 GMT 50.302486 -1.433048 19,000 40 419 0
2020-01-14 20:25:10 GMT 50.294151 -1.443960 19,000 39 418 0
2020-01-14 20:25:07 GMT 50.294151 -1.443960 19,000 39 418 0
2020-01-14 20:25:04 GMT 50.288223 -1.451713 19,000 39 418 0
2020-01-14 20:25:01 GMT 50.284050 -1.457173 19,000 39 419 0
2020-01-14 20:24:58 GMT 50.279297 -1.463350 19,000 39 419 0
2020-01-14 20:24:55 GMT 50.275726 -1.468048 19,000 39 419 64
2020-01-14 20:24:52 GMT 50.266800 -1.479685 19,000 39 419 0
2020-01-14 20:24:49 GMT 50.266800 -1.479685 19,000 39 419 64
2020-01-14 20:24:46 GMT 50.261902 -1.486118 19,000 39 419 0
2020-01-14 20:24:43 GMT 50.256866 -1.492656 19,000 39 419 0
2020-01-14 20:24:40 GMT 50.254025 -1.496368 19,000 39 419 0
2020-01-14 20:24:36 GMT 50.247044 -1.505498 19,000 39 420 -64
2020-01-14 20:24:33 GMT 50.244049 -1.509391 19,000 39 420 -64
2020-01-14 20:24:30 GMT 50.237961 -1.517342 19,000 39 420 -64
2020-01-14 20:24:27 GMT 50.229904 -1.527822 19,000 39 420 0
2020-01-14 20:24:21 GMT 50.225143 -1.534038 19,000 39 420 0
2020-01-14 20:24:18 GMT 50.220520 -1.540110 19,000 39 420 0
2020-01-14 20:24:15 GMT 50.216084 -1.545880 19,000 39 420 0
2020-01-14 20:24:12 GMT 50.211044 -1.552469 19,000 39 420 64
2020-01-14 20:24:09 GMT 50.207146 -1.557535 19,000 39 419 64
2020-01-14 20:24:06 GMT 50.198685 -1.568587 19,000 39 419 0
2020-01-14 20:24:00 GMT 50.191681 -1.577695 19,000 39 420 -64
2020-01-14 20:23:54 GMT 50.185593 -1.585645 19,000 39 420 -64
2020-01-14 20:23:51 GMT 50.179310 -1.593760 19,000 39 419 -64
2020-01-14 20:23:48 GMT 50.175156 -1.599234 19,000 39 419 -64
2020-01-14 20:23:45 GMT 50.171303 -1.604227 19,000 39 419 -64
2020-01-14 20:23:42 GMT 50.167530 -1.609052 19,000 39 420 0
2020-01-14 20:23:39 GMT 50.163528 -1.614322 19,000 39 420 0
2020-01-14 20:23:36 GMT 50.158314 -1.621077 19,000 39 420 0
2020-01-14 20:23:33 GMT 50.153564 -1.627313 19,000 39 420 0
2020-01-14 20:23:30 GMT 50.148026 -1.634513 19,000 39 420 0
2020-01-14 20:23:27 GMT 50.140137 -1.644769 19,000 39 420 0
2020-01-14 20:23:24 GMT 50.140137 -1.644769 19,000 39 420 0
2020-01-14 20:23:21 GMT 50.135193 -1.651202 19,000 39 420 0
2020-01-14 20:23:17 GMT 50.130756 -1.657006 19,000 39 420 0
2020-01-14 20:23:14 GMT 50.125820 -1.663389 19,000 39 420 0
2020-01-14 20:23:11 GMT 50.121490 -1.669031 19,000 39 420 0
2020-01-14 20:23:08 GMT 50.116104 -1.675993 19,000 39 420 0
2020-01-14 20:23:04 GMT 50.110291 -1.683510 19,000 39 420 0
2020-01-14 20:23:01 GMT 50.105667 -1.689509 19,000 39 420 0
2020-01-14 20:22:56 GMT 50.098213 -1.699243 19,000 39 420 0
2020-01-14 20:22:53 GMT 50.094818 -1.703697 19,000 39 420 0
2020-01-14 20:22:50 GMT 50.090332 -1.709458 19,000 39 420 0
2020-01-14 20:22:46 GMT 50.082413 -1.719722 19,000 39 420 0
2020-01-14 20:22:43 GMT 50.078979 -1.724203 19,000 39 420 0
2020-01-14 20:22:40 GMT 50.074657 -1.729827 19,000 39 420 0
2020-01-14 20:22:37 GMT 50.068542 -1.737719 19,000 39 420 0
2020-01-14 20:22:33 GMT 50.064789 -1.742562 19,000 39 420 0
2020-01-14 20:22:30 GMT 50.059845 -1.748922 19,000 39 420 0
2020-01-14 20:22:27 GMT 50.055061 -1.755140 19,000 39 420 0
2020-01-14 20:22:23 GMT 50.049568 -1.762341 19,000 39 420 64
2020-01-14 20:22:20 GMT 50.044464 -1.768871 19,000 39 420 0
2020-01-14 20:22:16 GMT 50.032948 -1.783794 19,000 39 421 0
2020-01-14 20:22:13 GMT 50.032948 -1.783794 19,000 39 421 0
2020-01-14 20:22:10 GMT 50.028763 -1.789181 19,000 39 421 0
2020-01-14 20:22:07 GMT 50.025192 -1.793807 19,000 39 421 0
2020-01-14 20:22:04 GMT 50.021313 -1.798863 19,000 39 421 0
2020-01-14 20:22:01 GMT 50.016933 -1.804430 19,000 39 421 0
2020-01-14 20:21:58 GMT 50.012192 -1.810576 19,000 39 421 -64
2020-01-14 20:21:55 GMT 50.006058 -1.818454 19,000 39 420 0
2020-01-14 20:21:52 GMT 50.002132 -1.823508 19,000 39 420 0
2020-01-14 20:21:49 GMT 49.998871 -1.827739 19,000 39 420 0
2020-01-14 20:21:46 GMT 49.994682 -1.833084 19,000 39 420 0
2020-01-14 20:21:43 GMT 49.986008 -1.844258 19,000 39 419 0
2020-01-14 20:21:37 GMT 49.979279 -1.852931 19,000 39 420 0
2020-01-14 20:21:33 GMT 49.973919 -1.859881 19,000 39 419 0
2020-01-14 20:21:30 GMT 49.970306 -1.864496 19,000 39 419 0
2020-01-14 20:21:27 GMT 49.965683 -1.870422 19,000 39 420 0
2020-01-14 20:21:24 GMT 49.960464 -1.877144 19,000 39 420 0
2020-01-14 20:21:21 GMT 49.955952 -1.882893 19,000 39 420 0
2020-01-14 20:21:18 GMT 49.951763 -1.888238 19,000 39 420 0
2020-01-14 20:21:15 GMT 49.947281 -1.894057 19,000 39 420 0
2020-01-14 20:21:12 GMT 49.943253 -1.899189 19,000 39 420 0
2020-01-14 20:21:09 GMT 49.939499 -1.904032 19,000 39 420 0
2020-01-14 20:21:06 GMT 49.934116 -1.910879 19,000 39 420 0
2020-01-14 20:21:03 GMT 49.928860 -1.917634 19,000 39 420 -64
2020-01-14 20:21:00 GMT 49.924988 -1.922607 19,000 39 420 0
2020-01-14 20:20:57 GMT 49.921223 -1.927432 19,000 39 420 -64
2020-01-14 20:20:54 GMT 49.916893 -1.933000 19,000 39 420 -64
2020-01-14 20:20:51 GMT 49.912125 -1.939087 19,000 39 419 0
2020-01-14 20:20:48 GMT 49.905537 -1.947549 19,000 39 419 0
2020-01-14 20:20:45 GMT 49.902557 -1.951409 19,000 39 419 64
2020-01-14 20:20:42 GMT 49.898228 -1.956903 19,000 39 419 64
2020-01-14 20:20:39 GMT 49.893723 -1.962650 19,000 39 419 64
2020-01-14 20:20:35 GMT 49.887909 -1.970094 19,000 39 419 64
2020-01-14 20:20:32 GMT 49.882370 -1.977178 19,000 39 419 0
2020-01-14 20:20:25 GMT 49.868179 -1.995320 19,000 39 419 0
2020-01-14 20:20:22 GMT 49.868179 -1.995320 19,000 39 419 0
2020-01-14 20:20:19 GMT 49.864571 -1.999957 19,000 39 419 0
2020-01-14 20:20:15 GMT 49.857819 -2.008494 19,000 39 419 0
2020-01-14 20:20:12 GMT 49.853943 -2.013461 19,000 39 419 0
2020-01-14 20:20:09 GMT 49.847672 -2.021484 19,000 39 419 0
2020-01-14 20:20:05 GMT 49.843460 -2.026833 19,000 39 419 0
2020-01-14 20:20:01 GMT 49.836872 -2.035217 19,000 39 419 0
2020-01-14 20:19:58 GMT 49.833298 -2.039771 19,000 39 419 0
2020-01-14 20:19:55 GMT 49.827934 -2.046649 19,000 39 419 0
2020-01-14 20:19:52 GMT 49.823559 -2.052216 19,000 39 419 0
2020-01-14 20:19:49 GMT 49.818947 -2.058081 19,000 39 419 0
2020-01-14 20:19:46 GMT 49.813843 -2.064562 19,000 39 419 0
2020-01-14 20:19:43 GMT 49.811035 -2.068176 19,000 39 419 0
2020-01-14 20:19:40 GMT 49.805492 -2.075228 19,000 39 419 0
2020-01-14 20:19:37 GMT 49.799953 -2.082280 19,000 39 419 0
2020-01-14 20:19:32 GMT 49.793484 -2.090372 19,000 38 418 0
2020-01-14 20:19:29 GMT 49.788364 -2.096681 19,000 37 417 0
2020-01-14 20:19:24 GMT 49.781754 -2.104550 19,000 37 418 0
2020-01-14 20:19:21 GMT 49.776398 -2.110893 19,000 37 417 0
2020-01-14 20:19:15 GMT 49.766418 -2.122602 19,000 37 417 64
2020-01-14 20:19:11 GMT 49.761364 -2.128527 19,000 37 416 64
2020-01-14 20:19:08 GMT 49.756893 -2.133723 19,000 37 416 64
2020-01-14 20:19:04 GMT 49.749493 -2.142408 19,000 37 416 64
2020-01-14 20:19:01 GMT 49.745815 -2.146714 19,000 37 417 0
2020-01-14 20:18:58 GMT 49.741390 -2.151910 19,000 37 418 0
2020-01-14 20:18:54 GMT 49.735245 -2.159175 19,000 37 418 0
2020-01-14 20:18:51 GMT 49.728928 -2.166547 19,000 37 418 0
2020-01-14 20:18:48 GMT 49.725677 -2.170378 19,000 37 418 0
2020-01-14 20:18:42 GMT 49.710983 -2.187725 19,000 37 418 0
2020-01-14 20:18:38 GMT 49.710983 -2.187725 19,000 37 418 0
2020-01-14 20:18:34 GMT 49.701141 -2.199362 19,000 37 418 0
2020-01-14 20:18:28 GMT 49.695305 -2.206248 19,000 37 418 0
2020-01-14 20:18:23 GMT 49.688873 -2.213890 19,000 37 418 0
2020-01-14 20:18:20 GMT 49.683197 -2.220684 19,000 37 418 0
2020-01-14 20:18:13 GMT 49.672806 -2.233116 19,000 37 419 -64
2020-01-14 20:18:10 GMT 49.668816 -2.237870 19,000 37 419 -64
2020-01-14 20:18:07 GMT 49.664246 -2.243379 19,025 37 420 0
2020-01-14 20:18:04 GMT 49.657928 -2.250824 19,025 37 420 0
2020-01-14 20:18:01 GMT 49.653969 -2.255612 19,000 34 420 320
2020-01-14 20:17:58 GMT 49.648407 -2.262172 19,000 37 420 64
2020-01-14 20:17:54 GMT 49.642365 -2.269183 19,000 35 420 384
2020-01-14 20:17:50 GMT 49.636871 -2.275399 18,975 34 420 320
2020-01-14 20:17:47 GMT 49.632088 -2.280628 18,975 35 420 384
2020-01-14 20:17:43 GMT 49.625565 -2.287035 18,950 29 417 384
2020-01-14 20:17:39 GMT 49.614586 -2.295549 18,900 22 412 832
2020-01-14 20:17:33 GMT 49.603176 -2.301710 18,700 14 406 1344
2020-01-14 20:17:30 GMT 49.603176 -2.301710 18,725 8 400 1664
2020-01-14 20:17:26 GMT 49.596634 -2.304310 18,675 8 400 1664
2020-01-14 20:17:23 GMT 49.589863 -2.306164 18,575 7 399 1728
2020-01-14 20:17:20 GMT 49.584743 -2.307055 18,475 4 394 2048
2020-01-14 20:17:17 GMT 49.579468 -2.307707 18,250 2 389 2688
2020-01-14 20:17:14 GMT 49.572269 -2.308168 18,150 2 388 3072
2020-01-14 20:17:11 GMT 49.568871 -2.308391 18,075 2 388 3200
2020-01-14 20:17:07 GMT 49.561516 -2.308836 17,775 2 387 3584
2020-01-14 20:17:00 GMT 49.548477 -2.309586 17,400 2 388 3648
2020-01-14 20:16:56 GMT 49.541264 -2.310024 17,150 2 389 3648
2020-01-14 20:16:52 GMT 49.534607 -2.310395 16,975 2 389 3712
2020-01-14 20:16:49 GMT 49.527420 -2.310815 16,675 2 390 3904
2020-01-14 20:16:45 GMT 49.521992 -2.311137 16,475 2 391 4032
2020-01-14 20:16:40 GMT 49.511719 -2.311755 16,075 2 393 3968
2020-01-14 20:16:37 GMT 49.505882 -2.312102 15,900 2 394 3904
2020-01-14 20:16:33 GMT 49.500252 -2.312474 15,675 2 394 3776
2020-01-14 20:16:30 GMT 49.495689 -2.312696 14,825 1 395 3584
2020-01-14 20:16:27 GMT 49.488373 -2.313128 15,300 1 395 3520
2020-01-14 20:16:24 GMT 49.484379 -2.313290 15,175 1 394 3520
2020-01-14 20:16:21 GMT 49.479080 -2.313489 14,950 1 394 3392
2020-01-14 20:16:18 GMT 49.473083 -2.313706 14,825 1 394 3328
2020-01-14 20:16:15 GMT 49.468185 -2.313851 14,700 1 394 3200
2020-01-14 20:16:12 GMT 49.460869 -2.314107 14,450 1 393 3008
2020-01-14 20:16:09 GMT 49.456512 -2.314284 14,250 1 392 2880
2020-01-14 20:16:06 GMT 49.450928 -2.314501 14,200 1 391 2816
2020-01-14 20:16:03 GMT 49.445847 -2.314718 14,050 1 390 2752
2020-01-14 20:16:00 GMT 49.439732 -2.314997 13,900 1 389 2752
2020-01-14 20:15:55 GMT 49.426468 -2.315513 13,575 1 385 2240
2020-01-14 20:15:49 GMT 49.420227 -2.315802 13,500 1 383 2112
2020-01-14 20:15:46 GMT 49.415314 -2.316002 13,325 1 379 1792
2020-01-14 20:15:43 GMT 49.410599 -2.316214 13,250 1 374 1600
2020-01-14 20:15:39 GMT 49.404144 -2.316495 13,200 1 373 1600
2020-01-14 20:15:36 GMT 49.397461 -2.316848 13,000 2 367 1600
2020-01-14 20:15:33 GMT 49.392563 -2.317059 13,025 2 365 1664
2020-01-14 20:15:29 GMT 49.386848 -2.317392 12,800 2 356 1728
2020-01-14 20:15:26 GMT 49.379562 -2.317834 12,775 2 355 1728
2020-01-14 20:15:23 GMT 49.375957 -2.318043 12,725 2 350 1792
2020-01-14 20:15:19 GMT 49.363907 -2.318749 12,575 2 343 1792
2020-01-14 20:15:16 GMT 49.363907 -2.318749 12,525 2 342 1792
2020-01-14 20:15:13 GMT 49.360107 -2.318960 12,450 2 339 1856
2020-01-14 20:15:09 GMT 49.353889 -2.319272 12,350 2 335 1920
2020-01-14 20:15:06 GMT 49.348816 -2.319561 12,200 1 329 1984
2020-01-14 20:15:00 GMT 49.340195 -2.319946 12,075 1 325 2048
2020-01-14 20:14:57 GMT 49.335434 -2.320228 11,900 1 317 1984
2020-01-14 20:14:50 GMT 49.325447 -2.320717 11,650 1 309 2176
2020-01-14 20:14:45 GMT 49.318649 -2.321079 11,525 1 305 2240
2020-01-14 20:14:39 GMT 49.311016 -2.321440 11,225 2 291 2432
2020-01-14 20:14:36 GMT 49.305313 -2.321777 11,100 2 291 2432
2020-01-14 20:14:32 GMT 49.301567 -2.321946 11,000 2 287 2496
2020-01-14 20:14:29 GMT 49.297703 -2.322235 10,650 2 284 2560
2020-01-14 20:14:25 GMT 49.291557 -2.322669 10,700 2 280 2688
2020-01-14 20:14:22 GMT 49.288345 -2.322886 10,550 3 277 2880
2020-01-14 20:14:18 GMT 49.282341 -2.323392 10,300 3 273 3776
2020-01-14 20:14:15 GMT 49.279037 -2.323749 10,125 3 273 3776
2020-01-14 20:14:10 GMT 49.272354 -2.324524 9,725 6 274 3840
2020-01-14 20:14:06 GMT 49.267303 -2.325199 9,500 6 274 3840
2020-01-14 20:14:03 GMT 49.262650 -2.325932 9,500 6 274 3840
2020-01-14 20:13:58 GMT 49.257477 -2.327059 9,050 8 276 3968
2020-01-14 20:13:55 GMT 49.253586 -2.328045 8,850 9 276 4096
2020-01-14 20:13:48 GMT 49.241001 -2.330258 8,200 359 265 3456
2020-01-14 20:13:45 GMT 49.241001 -2.330258 8,200 359 265 3456
2020-01-14 20:13:35 GMT 49.229187 -2.327200 7,625 342 243 3328
2020-01-14 20:13:25 GMT 49.219482 -2.319946 7,050 326 221 3392
2020-01-14 20:13:15 GMT 49.212112 -2.309946 6,500 310 199 3328
2020-01-14 20:13:05 GMT 49.206741 -2.298094 5,875 298 183 3712
2020-01-14 20:12:54 GMT 49.203712 -2.286891 5,275 286 170 3648
2020-01-14 20:12:44 GMT 49.202225 -2.268113 4,300 267 148 3264
2020-01-14 20:12:34 GMT 49.202408 -2.264592 4,125 265 144 3200
2020-01-14 20:12:24 GMT 49.203140 -2.254380 3,600 264 137 2816
2020-01-14 20:12:14 GMT 49.203808 -2.245186 3,150 264 129 2752
2020-01-14 20:12:04 GMT 49.204514 -2.236140 2,675 261 120 2624
2020-01-14 20:11:53 GMT 49.205482 -2.227623 2,250 261 115 2368
2020-01-14 20:11:41 GMT 49.206390 -2.217548 1,650 264 117 3456
2020-01-14 20:11:33 GMT 49.206924 -2.211071 1,200 264 122 3328
2020-01-14 20:11:24 GMT 49.207485 -2.202470 725 265 132 2112
2020-01-14 20:11:13 GMT 49.208138 -2.193218 600 263 105 0
2020-01-14 20:11:03 GMT 49.208637 -2.187291 0 261 62
2020-01-14 20:10:53 GMT 49.208874 -2.184483 0 261 10
2020-01-14 20:10:43 GMT 49.208885 -2.184325 0 258 0
2020-01-14 20:10:33 GMT 49.208893 -2.184328 0 258 3
2020-01-14 20:10:23 GMT 49.208939 -2.184021 0 315 6
2020-01-14 20:10:12 GMT 49.208672 -2.183804 0 351 11
2020-01-14 20:10:02 GMT 49.208130 -2.183744 0 16 12
2020-01-14 20:09:52 GMT 49.207603 -2.184219 0 42 15
2020-01-14 20:09:43 GMT 49.207310 -2.185051 0 84 15
2020-01-14 20:09:31 GMT 49.207214 -2.186226 0 84 21
2020-01-14 20:09:22 GMT 49.207077 -2.187793 0 81 24
2020-01-14 20:09:12 GMT 49.206951 -2.189396 0 81 22
2020-01-14 20:09:02 GMT 49.206837 -2.190716 0 84 16
2020-01-14 20:08:50 GMT 49.206776 -2.191863 0 98 14
2020-01-14 20:08:42 GMT 49.206902 -2.192730 0 104 16
2020-01-14 20:08:31 GMT 49.207066 -2.193742 0 92 14
2020-01-14 20:08:20 GMT 49.207008 -2.194862 0 81 14
2020-01-14 20:08:10 GMT 49.206917 -2.195681 0 70 11
2020-01-14 20:08:01 GMT 49.206711 -2.196280 0 42 10
2020-01-14 20:07:51 GMT 49.206379 -2.196669 0 39 9
2020-01-14 20:07:41 GMT 49.206139 -2.197125 0 81 10
2020-01-14 20:07:30 GMT 49.206066 -2.198043 0 84 12
2020-01-14 20:07:20 GMT 49.206013 -2.198762 0 67 11
2020-01-14 20:07:10 GMT 49.205681 -2.199255 0 2 14
2020-01-14 20:07:00 GMT 49.205124 -2.199199 0 354 11
2020-01-14 20:06:50 GMT 49.204651 -2.199114 0 343 10
2020-01-14 20:06:40 GMT 49.204296 -2.198747 0 270 8

Making use of Plane Finder data

You are free to use the raw flight data, aircraft information and images provided in this report for your own purposes provided the data is correctly attributed to Plane Finder. We ask that you please credit Plane Finder and link to planefinder.net in close proximity to the content.

Optionally one of the following logos (no smaller then 150x24px) can be used and must link to planefinder.net

Embedding the Plane Finder map

You are welcome to embed the Plane Finder playback map on your website to offer visitors a more interactive experience. We suggest using the following HTML code:

<iframe src="//planefinder.net/data/report/BA2777-G-DBCH-7700-squawk-2020-01-14/map" width="800" height="600" seamless="seamless"></iframe>

Where our data comes from

Plane Finder has a global network of data feeds and antenna radars that receive data broadcast directly from aircraft. The primary technologies used are ADS-B and MLAT. We also show feeds from the FAA and a FLARM glider feed.

Click here to find out more about the Plane Finder network.

How we collect our data